UAL201 PHNL-PGUM
Flight info
| Callsign | UAL201 |
|---|---|
| Flight time | 7h 32m |
| Altitude | 35000 |
| Route | KEOLA3 NONNI BRIUN 20N170W 18N180E 17N170E 16N160E 15N150E DEWSS |
| Aircraft | B77W/H-SDE1E2E3FGHIJ2J3J4J5M1RWXY/LB1D1 |
Departure
| Time | 2026-04-23 07:20 |
|---|---|
| Airport | Daniel K. Inouye International Airport (PHNL) |
Arrival
| Time | 2026-04-23 14:53 |
|---|---|
| Airport | Antonio B. Won Pat International Airport (PGUM) |
| Time | Latitude | Longitude | Altitude | Speed | Heading |
|---|---|---|---|---|---|
| 2026-04-23 06:36 | 21.32889 | -157.92328 | 45 ft | 0 kts | 320° |
| 2026-04-23 07:09 | 21.32889 | -157.92326 | 45 ft | 0 kts | 320° |
| 2026-04-23 07:10 | 21.32878 | -157.92317 | 45 ft | 2 kts | 320° |
| 2026-04-23 07:10 | 21.32867 | -157.92307 | 45 ft | 1 kts | 320° |
| 2026-04-23 07:10 | 21.32859 | -157.92300 | 45 ft | 2 kts | 313° |
| 2026-04-23 07:11 | 21.32851 | -157.92287 | 44 ft | 2 kts | 287° |
| 2026-04-23 07:11 | 21.32849 | -157.92271 | 44 ft | 2 kts | 266° |
| 2026-04-23 07:11 | 21.32852 | -157.92256 | 44 ft | 2 kts | 245° |
| 2026-04-23 07:12 | 21.32872 | -157.92233 | 43 ft | 2 kts | 204° |
| 2026-04-23 07:12 | 21.32880 | -157.92230 | 43 ft | 0 kts | 191° |
| 2026-04-23 07:12 | 21.32884 | -157.92229 | 43 ft | 0 kts | 191° |
| 2026-04-23 07:14 | 21.32873 | -157.92232 | 43 ft | 5 kts | 191° |
| 2026-04-23 07:14 | 21.32828 | -157.92250 | 43 ft | 8 kts | 218° |
| 2026-04-23 07:14 | 21.32795 | -157.92316 | 44 ft | 11 kts | 255° |
| 2026-04-23 07:15 | 21.32778 | -157.92407 | 44 ft | 14 kts | 265° |
| 2026-04-23 07:15 | 21.32774 | -157.92525 | 44 ft | 16 kts | 269° |
| 2026-04-23 07:15 | 21.32772 | -157.92656 | 42 ft | 17 kts | 264° |
| 2026-04-23 07:15 | 21.32750 | -157.92787 | 40 ft | 18 kts | 262° |
| 2026-04-23 07:16 | 21.32741 | -157.92921 | 38 ft | 17 kts | 269° |
| 2026-04-23 07:16 | 21.32740 | -157.93056 | 37 ft | 17 kts | 270° |
| 2026-04-23 07:16 | 21.32741 | -157.93181 | 36 ft | 16 kts | 270° |
| 2026-04-23 07:16 | 21.32741 | -157.93300 | 36 ft | 15 kts | 270° |
| 2026-04-23 07:17 | 21.32741 | -157.93407 | 36 ft | 13 kts | 270° |
| 2026-04-23 07:17 | 21.32741 | -157.93517 | 37 ft | 15 kts | 270° |
| 2026-04-23 07:17 | 21.32741 | -157.93637 | 37 ft | 16 kts | 270° |
| 2026-04-23 07:17 | 21.32741 | -157.93764 | 38 ft | 17 kts | 270° |
| 2026-04-23 07:18 | 21.32741 | -157.93900 | 38 ft | 18 kts | 270° |
| 2026-04-23 07:18 | 21.32741 | -157.94043 | 37 ft | 19 kts | 270° |
| 2026-04-23 07:18 | 21.32741 | -157.94189 | 37 ft | 18 kts | 270° |
| 2026-04-23 07:18 | 21.32717 | -157.94302 | 37 ft | 12 kts | 220° |
| 2026-04-23 07:19 | 21.32641 | -157.94318 | 37 ft | 10 kts | 182° |
| 2026-04-23 07:19 | 21.32570 | -157.94316 | 37 ft | 11 kts | 167° |
| 2026-04-23 07:19 | 21.32523 | -157.94253 | 36 ft | 12 kts | 89° |
| 2026-04-23 07:19 | 21.32524 | -157.94218 | 36 ft | 9 kts | 88° |
| 2026-04-23 07:20 | 21.32528 | -157.93870 | 34 ft | 84 kts | 89° |
| 2026-04-23 07:20 | 21.32529 | -157.92967 | 34 ft | 153 kts | 89° |
| 2026-04-23 07:20 | 21.32511 | -157.91656 | 225 ft | 194 kts | 91° |
| 2026-04-23 07:20 | 21.32420 | -157.90169 | 962 ft | 200 kts | 93° |
| 2026-04-23 07:21 | 21.32278 | -157.88702 | 1602 ft | 207 kts | 100° |
| 2026-04-23 07:21 | 21.31632 | -157.87244 | 2029 ft | 234 kts | 126° |
| 2026-04-23 07:21 | 21.30313 | -157.86073 | 2529 ft | 258 kts | 149° |
| 2026-04-23 07:21 | 21.28574 | -157.85405 | 3267 ft | 271 kts | 167° |
| 2026-04-23 07:22 | 21.26675 | -157.85281 | 4088 ft | 279 kts | 188° |
| 2026-04-23 07:22 | 21.24898 | -157.86104 | 4949 ft | 283 kts | 220° |
| 2026-04-23 07:22 | 21.23749 | -157.87769 | 5775 ft | 283 kts | 252° |
| 2026-04-23 07:22 | 21.23513 | -157.89833 | 6587 ft | 282 kts | 276° |
| 2026-04-23 07:23 | 21.23709 | -157.91945 | 7416 ft | 286 kts | 278° |
| 2026-04-23 07:23 | 21.23939 | -157.94064 | 8186 ft | 290 kts | 278° |
| 2026-04-23 07:23 | 21.24173 | -157.96219 | 8981 ft | 294 kts | 278° |
| 2026-04-23 07:23 | 21.24412 | -157.98412 | 9697 ft | 299 kts | 278° |
| 2026-04-23 07:24 | 21.24653 | -158.00629 | 9956 ft | 302 kts | 278° |
| 2026-04-23 07:24 | 21.24895 | -158.02869 | 9985 ft | 300 kts | 278° |
| 2026-04-23 07:24 | 21.25136 | -158.05098 | 10096 ft | 308 kts | 278° |
| 2026-04-23 07:24 | 21.25393 | -158.07466 | 10419 ft | 330 kts | 278° |
| 2026-04-23 07:25 | 21.25670 | -158.10010 | 10765 ft | 352 kts | 278° |
| 2026-04-23 07:25 | 21.25960 | -158.12692 | 11137 ft | 371 kts | 278° |
| 2026-04-23 07:25 | 21.26258 | -158.15469 | 11657 ft | 381 kts | 278° |
| 2026-04-23 07:25 | 21.26566 | -158.18349 | 12251 ft | 386 kts | 278° |
| 2026-04-23 07:26 | 21.26873 | -158.21216 | 12847 ft | 389 kts | 278° |
| 2026-04-23 07:26 | 21.27181 | -158.24107 | 13446 ft | 392 kts | 278° |
| 2026-04-23 07:26 | 21.27490 | -158.27013 | 14016 ft | 396 kts | 278° |
| 2026-04-23 07:26 | 21.27802 | -158.29952 | 14616 ft | 398 kts | 278° |
| 2026-04-23 07:27 | 21.28118 | -158.32930 | 15220 ft | 400 kts | 278° |
| 2026-04-23 07:27 | 21.28432 | -158.35906 | 15810 ft | 403 kts | 278° |
| 2026-04-23 07:27 | 21.28747 | -158.38886 | 16401 ft | 405 kts | 278° |
| 2026-04-23 07:27 | 21.29064 | -158.41898 | 16996 ft | 408 kts | 278° |
| 2026-04-23 07:28 | 21.29381 | -158.44917 | 17587 ft | 411 kts | 278° |
| 2026-04-23 07:28 | 21.29701 | -158.48013 | 18169 ft | 415 kts | 277° |
| 2026-04-23 07:28 | 21.29777 | -158.51111 | 18748 ft | 419 kts | 271° |
| 2026-04-23 07:28 | 21.29719 | -158.54242 | 19327 ft | 422 kts | 270° |
| 2026-04-23 07:29 | 21.29653 | -158.57382 | 19898 ft | 425 kts | 270° |
| 2026-04-23 07:29 | 21.29586 | -158.60594 | 20480 ft | 428 kts | 270° |
| 2026-04-23 07:29 | 21.29519 | -158.63780 | 21051 ft | 431 kts | 270° |
| 2026-04-23 07:29 | 21.29451 | -158.67013 | 21625 ft | 435 kts | 269° |
| 2026-04-23 07:30 | 21.29382 | -158.70242 | 22193 ft | 438 kts | 269° |
| 2026-04-23 07:30 | 21.29312 | -158.73563 | 22777 ft | 441 kts | 269° |
| 2026-04-23 07:30 | 21.29241 | -158.76839 | 23357 ft | 444 kts | 269° |
| 2026-04-23 07:30 | 21.29170 | -158.80153 | 23941 ft | 446 kts | 269° |
| 2026-04-23 07:31 | 21.29097 | -158.83470 | 24528 ft | 448 kts | 269° |
| 2026-04-23 07:31 | 21.29022 | -158.86864 | 25126 ft | 451 kts | 269° |
| 2026-04-23 07:31 | 21.28948 | -158.90207 | 25713 ft | 453 kts | 270° |
| 2026-04-23 07:31 | 21.28872 | -158.93593 | 26303 ft | 456 kts | 270° |
| 2026-04-23 07:32 | 21.28796 | -158.96986 | 26873 ft | 458 kts | 270° |
| 2026-04-23 07:32 | 21.28717 | -159.00467 | 27294 ft | 464 kts | 270° |
| 2026-04-23 07:32 | 21.28637 | -159.03932 | 27688 ft | 466 kts | 270° |
| 2026-04-23 07:32 | 21.28557 | -159.07385 | 28074 ft | 464 kts | 270° |
| 2026-04-23 07:33 | 21.28475 | -159.10867 | 28466 ft | 462 kts | 270° |
| 2026-04-23 07:33 | 21.28394 | -159.14290 | 28847 ft | 461 kts | 270° |
| 2026-04-23 07:33 | 21.28312 | -159.17723 | 29083 ft | 462 kts | 270° |
| 2026-04-23 07:34 | 21.28146 | -159.24632 | 29091 ft | 461 kts | 270° |
| 2026-04-23 07:34 | 21.27977 | -159.31520 | 29092 ft | 462 kts | 270° |
| 2026-04-23 07:35 | 21.27805 | -159.38403 | 29095 ft | 461 kts | 270° |
| 2026-04-23 07:35 | 21.27631 | -159.45293 | 29092 ft | 460 kts | 270° |
| 2026-04-23 07:36 | 21.27454 | -159.52168 | 29087 ft | 460 kts | 270° |
| 2026-04-23 07:36 | 21.27276 | -159.59010 | 29087 ft | 460 kts | 270° |
| 2026-04-23 07:37 | 21.27093 | -159.65901 | 29090 ft | 460 kts | 270° |
| 2026-04-23 07:37 | 21.26908 | -159.72763 | 29098 ft | 460 kts | 270° |
| 2026-04-23 07:38 | 21.26723 | -159.79587 | 29090 ft | 460 kts | 270° |
| 2026-04-23 07:38 | 21.26535 | -159.86469 | 29096 ft | 460 kts | 270° |
| 2026-04-23 07:39 | 21.26343 | -159.93355 | 29091 ft | 460 kts | 270° |
| 2026-04-23 07:39 | 21.26150 | -160.00201 | 29088 ft | 460 kts | 270° |
| 2026-04-23 07:40 | 21.25954 | -160.07039 | 29091 ft | 460 kts | 270° |
| 2026-04-23 07:40 | 21.25754 | -160.13913 | 29091 ft | 459 kts | 270° |
| 2026-04-23 07:41 | 21.25552 | -160.20775 | 29089 ft | 460 kts | 270° |
| 2026-04-23 07:41 | 21.25346 | -160.27638 | 29091 ft | 456 kts | 270° |
| 2026-04-23 07:42 | 21.25139 | -160.34492 | 29092 ft | 461 kts | 270° |
| 2026-04-23 07:42 | 21.24928 | -160.41357 | 29093 ft | 459 kts | 270° |
| 2026-04-23 07:43 | 21.24716 | -160.48210 | 29094 ft | 463 kts | 270° |
| 2026-04-23 07:43 | 21.24498 | -160.55125 | 29091 ft | 459 kts | 270° |
| 2026-04-23 07:44 | 21.24279 | -160.61978 | 29094 ft | 459 kts | 270° |
| 2026-04-23 07:44 | 21.24059 | -160.68794 | 29097 ft | 459 kts | 269° |
| 2026-04-23 07:45 | 21.23835 | -160.75648 | 29095 ft | 460 kts | 269° |
| 2026-04-23 07:45 | 21.23607 | -160.82512 | 29096 ft | 459 kts | 269° |
| 2026-04-23 07:46 | 21.23378 | -160.89351 | 29097 ft | 458 kts | 269° |
| 2026-04-23 07:46 | 21.23146 | -160.96170 | 29094 ft | 458 kts | 269° |
| 2026-04-23 07:47 | 21.22912 | -161.02997 | 29093 ft | 458 kts | 269° |
| 2026-04-23 07:47 | 21.22733 | -161.09830 | 29095 ft | 457 kts | 270° |
| 2026-04-23 07:48 | 21.22612 | -161.16669 | 29095 ft | 457 kts | 270° |
| 2026-04-23 07:48 | 21.22484 | -161.23500 | 29092 ft | 458 kts | 270° |
| 2026-04-23 07:49 | 21.22352 | -161.30304 | 29093 ft | 458 kts | 270° |
| 2026-04-23 07:49 | 21.22215 | -161.37144 | 29092 ft | 459 kts | 270° |
| 2026-04-23 07:50 | 21.22075 | -161.43991 | 29091 ft | 458 kts | 270° |
| 2026-04-23 07:50 | 21.21930 | -161.50845 | 29093 ft | 458 kts | 271° |
| 2026-04-23 07:51 | 21.21784 | -161.57693 | 29092 ft | 459 kts | 270° |
| 2026-04-23 07:51 | 21.21634 | -161.64551 | 29091 ft | 458 kts | 270° |
| 2026-04-23 07:52 | 21.21482 | -161.71399 | 29097 ft | 458 kts | 270° |
| 2026-04-23 07:52 | 21.21328 | -161.78192 | 29096 ft | 458 kts | 270° |
| 2026-04-23 07:53 | 21.21170 | -161.85034 | 29097 ft | 458 kts | 270° |
| 2026-04-23 07:53 | 21.21009 | -161.91913 | 29097 ft | 458 kts | 270° |
| 2026-04-23 07:54 | 21.20845 | -161.98758 | 29095 ft | 459 kts | 270° |
| 2026-04-23 07:54 | 21.20679 | -162.05592 | 29099 ft | 459 kts | 270° |
| 2026-04-23 07:55 | 21.20508 | -162.12596 | 29112 ft | 481 kts | 270° |
| 2026-04-23 07:55 | 21.20418 | -162.16209 | 29457 ft | 487 kts | 270° |
| 2026-04-23 07:55 | 21.20327 | -162.19788 | 30372 ft | 480 kts | 270° |
| 2026-04-23 07:55 | 21.20236 | -162.23337 | 31502 ft | 468 kts | 270° |
| 2026-04-23 07:56 | 21.20147 | -162.26765 | 32367 ft | 461 kts | 270° |
| 2026-04-23 07:56 | 21.20058 | -162.30225 | 32963 ft | 460 kts | 270° |
| 2026-04-23 07:56 | 21.19969 | -162.33661 | 33089 ft | 465 kts | 270° |
| 2026-04-23 07:57 | 21.19787 | -162.40550 | 33096 ft | 462 kts | 270° |
| 2026-04-23 07:57 | 21.19603 | -162.47456 | 33093 ft | 462 kts | 270° |
| 2026-04-23 07:58 | 21.19416 | -162.54334 | 33099 ft | 461 kts | 270° |
| 2026-04-23 07:58 | 21.19226 | -162.61226 | 33099 ft | 462 kts | 270° |
| 2026-04-23 07:59 | 21.19034 | -162.68091 | 33101 ft | 462 kts | 270° |
| 2026-04-23 07:59 | 21.18838 | -162.75029 | 33095 ft | 463 kts | 270° |
| 2026-04-23 08:00 | 21.18640 | -162.81915 | 33096 ft | 463 kts | 270° |
| 2026-04-23 08:00 | 21.18438 | -162.88811 | 33098 ft | 462 kts | 270° |
| 2026-04-23 08:01 | 21.18235 | -162.95692 | 33107 ft | 463 kts | 270° |
| 2026-04-23 08:01 | 21.18027 | -163.02603 | 33109 ft | 462 kts | 270° |
| 2026-04-23 08:02 | 21.17817 | -163.09511 | 33111 ft | 461 kts | 270° |
| 2026-04-23 08:02 | 21.17606 | -163.16374 | 33107 ft | 461 kts | 270° |
| 2026-04-23 08:03 | 21.17391 | -163.23267 | 33098 ft | 462 kts | 270° |
| 2026-04-23 08:03 | 21.17174 | -163.30130 | 33095 ft | 462 kts | 270° |
| 2026-04-23 08:04 | 21.16953 | -163.37047 | 33094 ft | 463 kts | 270° |
| 2026-04-23 08:04 | 21.16730 | -163.43922 | 33096 ft | 462 kts | 270° |
| 2026-04-23 08:05 | 21.16503 | -163.50812 | 33101 ft | 462 kts | 270° |
| 2026-04-23 08:05 | 21.16274 | -163.57724 | 33101 ft | 462 kts | 270° |
| 2026-04-23 08:06 | 21.16042 | -163.64604 | 33096 ft | 463 kts | 270° |
| 2026-04-23 08:06 | 21.15807 | -163.71518 | 33105 ft | 463 kts | 269° |
| 2026-04-23 08:07 | 21.15570 | -163.78387 | 33099 ft | 463 kts | 269° |
| 2026-04-23 08:07 | 21.15330 | -163.85278 | 33096 ft | 463 kts | 269° |
| 2026-04-23 08:08 | 21.14938 | -163.92200 | 33097 ft | 464 kts | 263° |
| 2026-04-23 08:08 | 21.13817 | -163.99013 | 33095 ft | 464 kts | 262° |
| 2026-04-23 08:09 | 21.12657 | -164.05815 | 33095 ft | 465 kts | 262° |
| 2026-04-23 08:09 | 21.11487 | -164.12659 | 33094 ft | 465 kts | 262° |
| 2026-04-23 08:10 | 21.10321 | -164.19449 | 33093 ft | 465 kts | 262° |
| 2026-04-23 08:10 | 21.08560 | -164.29680 | 33090 ft | 466 kts | 262° |
| 2026-04-23 08:11 | 21.07377 | -164.36526 | 33091 ft | 466 kts | 262° |
| 2026-04-23 08:11 | 21.06198 | -164.43333 | 33091 ft | 465 kts | 262° |
| 2026-04-23 08:12 | 21.05006 | -164.50195 | 33090 ft | 466 kts | 262° |
| 2026-04-23 08:12 | 21.03822 | -164.56998 | 33089 ft | 466 kts | 262° |
| 2026-04-23 08:13 | 21.02627 | -164.63846 | 33090 ft | 466 kts | 262° |
| 2026-04-23 08:13 | 21.01435 | -164.70659 | 33094 ft | 466 kts | 261° |
| 2026-04-23 08:14 | 21.00241 | -164.77467 | 33092 ft | 465 kts | 261° |
| 2026-04-23 08:14 | 20.99041 | -164.84296 | 33093 ft | 466 kts | 261° |
| 2026-04-23 08:15 | 20.97843 | -164.91095 | 33093 ft | 466 kts | 261° |
| 2026-04-23 08:15 | 20.96635 | -164.97934 | 33091 ft | 465 kts | 261° |
| 2026-04-23 08:16 | 20.95434 | -165.04717 | 33092 ft | 466 kts | 261° |
| 2026-04-23 08:16 | 20.94220 | -165.11557 | 33091 ft | 467 kts | 261° |
| 2026-04-23 08:17 | 20.93006 | -165.18381 | 33091 ft | 467 kts | 261° |
| 2026-04-23 08:17 | 20.91786 | -165.25220 | 33088 ft | 466 kts | 261° |
| 2026-04-23 08:18 | 20.90564 | -165.32057 | 33090 ft | 465 kts | 261° |
| 2026-04-23 08:18 | 20.89345 | -165.38858 | 33087 ft | 466 kts | 261° |
| 2026-04-23 08:19 | 20.88122 | -165.45668 | 33083 ft | 466 kts | 261° |
| 2026-04-23 08:19 | 20.86896 | -165.52475 | 33085 ft | 466 kts | 261° |
| 2026-04-23 08:20 | 20.85662 | -165.59315 | 33083 ft | 466 kts | 261° |
| 2026-04-23 08:20 | 20.84432 | -165.66115 | 33087 ft | 466 kts | 261° |
| 2026-04-23 08:21 | 20.83198 | -165.72917 | 33090 ft | 467 kts | 261° |
| 2026-04-23 08:21 | 20.81954 | -165.79765 | 33088 ft | 466 kts | 261° |
| 2026-04-23 08:22 | 20.80719 | -165.86543 | 33091 ft | 465 kts | 261° |
| 2026-04-23 08:22 | 20.79475 | -165.93359 | 33088 ft | 465 kts | 261° |
| 2026-04-23 08:23 | 20.78237 | -166.00122 | 33089 ft | 465 kts | 261° |
| 2026-04-23 08:23 | 20.76988 | -166.06931 | 33093 ft | 466 kts | 261° |
| 2026-04-23 08:24 | 20.75743 | -166.13701 | 33092 ft | 466 kts | 261° |
| 2026-04-23 08:24 | 20.74487 | -166.20519 | 33094 ft | 466 kts | 261° |
| 2026-04-23 08:25 | 20.73228 | -166.27336 | 33091 ft | 466 kts | 261° |
| 2026-04-23 08:25 | 20.71974 | -166.34105 | 33094 ft | 465 kts | 261° |
| 2026-04-23 08:26 | 20.70711 | -166.40915 | 33099 ft | 465 kts | 261° |
| 2026-04-23 08:26 | 20.69449 | -166.47699 | 33097 ft | 465 kts | 261° |
| 2026-04-23 08:27 | 20.68189 | -166.54459 | 33093 ft | 465 kts | 261° |
| 2026-04-23 08:27 | 20.66921 | -166.61244 | 33094 ft | 465 kts | 261° |
| 2026-04-23 08:28 | 20.65647 | -166.68050 | 33101 ft | 466 kts | 260° |
| 2026-04-23 08:28 | 20.64377 | -166.74817 | 33099 ft | 465 kts | 261° |
| 2026-04-23 08:29 | 20.63103 | -166.81592 | 33100 ft | 465 kts | 261° |
| 2026-04-23 08:29 | 20.61818 | -166.88405 | 33101 ft | 465 kts | 260° |
| 2026-04-23 08:30 | 20.60541 | -166.95163 | 33103 ft | 465 kts | 260° |
| 2026-04-23 08:30 | 20.59251 | -167.01981 | 33102 ft | 466 kts | 260° |
| 2026-04-23 08:31 | 20.57966 | -167.08748 | 33104 ft | 466 kts | 260° |
| 2026-04-23 08:31 | 20.56675 | -167.15535 | 33105 ft | 466 kts | 260° |
| 2026-04-23 08:32 | 20.55381 | -167.22325 | 33106 ft | 465 kts | 261° |
| 2026-04-23 08:32 | 20.54093 | -167.29066 | 33101 ft | 465 kts | 261° |
| 2026-04-23 08:33 | 20.52794 | -167.35849 | 33098 ft | 464 kts | 261° |
| 2026-04-23 08:33 | 20.51503 | -167.42580 | 33099 ft | 464 kts | 261° |
| 2026-04-23 08:34 | 20.50198 | -167.49362 | 33094 ft | 464 kts | 261° |
| 2026-04-23 08:34 | 20.48897 | -167.56114 | 33095 ft | 465 kts | 261° |
| 2026-04-23 08:35 | 20.47587 | -167.62897 | 33098 ft | 465 kts | 261° |
| 2026-04-23 08:35 | 20.46282 | -167.69638 | 33103 ft | 466 kts | 261° |
| 2026-04-23 08:36 | 20.44972 | -167.76393 | 33100 ft | 465 kts | 260° |
| 2026-04-23 08:36 | 20.43650 | -167.83191 | 33102 ft | 465 kts | 261° |
| 2026-04-23 08:37 | 20.42339 | -167.89922 | 33098 ft | 465 kts | 261° |
| 2026-04-23 08:37 | 20.41015 | -167.96703 | 33101 ft | 464 kts | 261° |
| 2026-04-23 08:38 | 20.39703 | -168.03409 | 33101 ft | 463 kts | 261° |
| 2026-04-23 08:38 | 20.38380 | -168.10158 | 33098 ft | 463 kts | 261° |
| 2026-04-23 08:39 | 20.37056 | -168.16895 | 33098 ft | 464 kts | 261° |
| 2026-04-23 08:39 | 20.35734 | -168.23610 | 33100 ft | 464 kts | 261° |
| 2026-04-23 08:40 | 20.34400 | -168.30366 | 33094 ft | 465 kts | 261° |
| 2026-04-23 08:40 | 20.33072 | -168.37083 | 33098 ft | 464 kts | 261° |
| 2026-04-23 08:41 | 20.31736 | -168.43826 | 33098 ft | 465 kts | 261° |
| 2026-04-23 08:41 | 20.30395 | -168.50578 | 33096 ft | 464 kts | 261° |
| 2026-04-23 08:42 | 20.29052 | -168.57326 | 33096 ft | 463 kts | 261° |
| 2026-04-23 08:42 | 20.27718 | -168.64018 | 33093 ft | 462 kts | 261° |
| 2026-04-23 08:43 | 20.26375 | -168.70740 | 33101 ft | 464 kts | 260° |
| 2026-04-23 08:43 | 20.25032 | -168.77443 | 33099 ft | 463 kts | 260° |
| 2026-04-23 08:44 | 20.23686 | -168.84154 | 33099 ft | 463 kts | 260° |
| 2026-04-23 08:44 | 20.22342 | -168.90836 | 33099 ft | 462 kts | 260° |
| 2026-04-23 08:45 | 20.20988 | -168.97557 | 33097 ft | 462 kts | 260° |
| 2026-04-23 08:45 | 20.19634 | -169.04263 | 33098 ft | 461 kts | 260° |
| 2026-04-23 08:46 | 20.18283 | -169.10944 | 33095 ft | 462 kts | 260° |
| 2026-04-23 08:46 | 20.16930 | -169.17615 | 33092 ft | 462 kts | 260° |
| 2026-04-23 08:47 | 20.15565 | -169.24332 | 33093 ft | 462 kts | 260° |
| 2026-04-23 08:47 | 20.14207 | -169.31003 | 33094 ft | 462 kts | 260° |
| 2026-04-23 08:48 | 20.12838 | -169.37715 | 33088 ft | 462 kts | 260° |
| 2026-04-23 08:48 | 20.11478 | -169.44374 | 33084 ft | 462 kts | 260° |
| 2026-04-23 08:49 | 20.10104 | -169.51079 | 33090 ft | 462 kts | 260° |
| 2026-04-23 08:49 | 20.08727 | -169.57791 | 33088 ft | 464 kts | 260° |
| 2026-04-23 08:50 | 20.07352 | -169.64476 | 33091 ft | 463 kts | 260° |
| 2026-04-23 08:50 | 20.05966 | -169.71204 | 33097 ft | 463 kts | 260° |
| 2026-04-23 08:51 | 20.04586 | -169.77887 | 33094 ft | 462 kts | 260° |
| 2026-04-23 08:51 | 20.03208 | -169.84551 | 33095 ft | 462 kts | 259° |
| 2026-04-23 08:52 | 20.01819 | -169.91251 | 33092 ft | 463 kts | 259° |
| 2026-04-23 08:52 | 20.00434 | -169.97919 | 33089 ft | 462 kts | 259° |
| 2026-04-23 08:53 | 19.99162 | -170.04622 | 33092 ft | 462 kts | 262° |
| 2026-04-23 08:53 | 19.98032 | -170.11375 | 33093 ft | 463 kts | 262° |
| 2026-04-23 08:54 | 19.96884 | -170.18150 | 33093 ft | 463 kts | 262° |
| 2026-04-23 08:54 | 19.95740 | -170.24850 | 33094 ft | 462 kts | 262° |
| 2026-04-23 08:55 | 19.94589 | -170.31555 | 33091 ft | 460 kts | 262° |
| 2026-04-23 08:55 | 19.93432 | -170.38269 | 33091 ft | 460 kts | 262° |
| 2026-04-23 08:56 | 19.92270 | -170.44998 | 33089 ft | 461 kts | 262° |
| 2026-04-23 08:56 | 19.91109 | -170.51694 | 33090 ft | 460 kts | 262° |
| 2026-04-23 08:57 | 19.89948 | -170.58382 | 33087 ft | 461 kts | 262° |
| 2026-04-23 08:57 | 19.88784 | -170.65068 | 33082 ft | 460 kts | 261° |
| 2026-04-23 08:58 | 19.87615 | -170.71767 | 33090 ft | 461 kts | 261° |
| 2026-04-23 08:58 | 19.86435 | -170.78508 | 33087 ft | 461 kts | 261° |
| 2026-04-23 08:59 | 19.85258 | -170.85222 | 33088 ft | 460 kts | 262° |
| 2026-04-23 08:59 | 19.84084 | -170.91899 | 33085 ft | 459 kts | 262° |
| 2026-04-23 09:00 | 19.82912 | -170.98557 | 33085 ft | 459 kts | 262° |
| 2026-04-23 09:00 | 19.81731 | -171.05246 | 33084 ft | 459 kts | 261° |
| 2026-04-23 09:01 | 19.80554 | -171.11899 | 33086 ft | 458 kts | 261° |
| 2026-04-23 09:01 | 19.79368 | -171.18588 | 33085 ft | 459 kts | 261° |
| 2026-04-23 09:02 | 19.78186 | -171.25236 | 33086 ft | 458 kts | 261° |
| 2026-04-23 09:02 | 19.76999 | -171.31897 | 33098 ft | 458 kts | 261° |
| 2026-04-23 09:03 | 19.75817 | -171.38519 | 33104 ft | 458 kts | 261° |
| 2026-04-23 09:03 | 19.74625 | -171.45183 | 33099 ft | 458 kts | 261° |
| 2026-04-23 09:04 | 19.73438 | -171.51799 | 33099 ft | 458 kts | 261° |
| 2026-04-23 09:04 | 19.72243 | -171.58449 | 33098 ft | 457 kts | 261° |
| 2026-04-23 09:05 | 19.71045 | -171.65103 | 33098 ft | 456 kts | 261° |
| 2026-04-23 09:05 | 19.69853 | -171.71707 | 33106 ft | 456 kts | 261° |
| 2026-04-23 09:06 | 19.68658 | -171.78313 | 33105 ft | 456 kts | 261° |
| 2026-04-23 09:06 | 19.67461 | -171.84917 | 33104 ft | 456 kts | 261° |
| 2026-04-23 09:07 | 19.66256 | -171.91547 | 33103 ft | 456 kts | 261° |
| 2026-04-23 09:07 | 19.65049 | -171.98180 | 33104 ft | 456 kts | 261° |
| 2026-04-23 09:08 | 19.63845 | -172.04776 | 33100 ft | 456 kts | 261° |
| 2026-04-23 09:08 | 19.62634 | -172.11400 | 33102 ft | 456 kts | 261° |
| 2026-04-23 09:09 | 19.61425 | -172.17995 | 33103 ft | 457 kts | 261° |
| 2026-04-23 09:09 | 19.60204 | -172.24646 | 33099 ft | 457 kts | 261° |
| 2026-04-23 09:10 | 19.58374 | -172.34582 | 33100 ft | 456 kts | 261° |
| 2026-04-23 09:11 | 19.57157 | -172.41174 | 33098 ft | 457 kts | 261° |
| 2026-04-23 09:11 | 19.55930 | -172.47804 | 33098 ft | 456 kts | 261° |
| 2026-04-23 09:12 | 19.54706 | -172.54408 | 33097 ft | 456 kts | 261° |
| 2026-04-23 09:12 | 19.53481 | -172.60997 | 33096 ft | 456 kts | 261° |
| 2026-04-23 09:13 | 19.52253 | -172.67593 | 33104 ft | 457 kts | 261° |
| 2026-04-23 09:13 | 19.51015 | -172.74229 | 33101 ft | 457 kts | 260° |
| 2026-04-23 09:14 | 19.49780 | -172.80837 | 33103 ft | 458 kts | 260° |
| 2026-04-23 09:14 | 19.48535 | -172.87482 | 33103 ft | 456 kts | 260° |
| 2026-04-23 09:15 | 19.47299 | -172.94064 | 33101 ft | 457 kts | 260° |
| 2026-04-23 09:15 | 19.46052 | -173.00691 | 33101 ft | 456 kts | 260° |
| 2026-04-23 09:16 | 19.44803 | -173.07318 | 33097 ft | 457 kts | 260° |
| 2026-04-23 09:16 | 19.43560 | -173.13892 | 33092 ft | 457 kts | 260° |
| 2026-04-23 09:17 | 19.42305 | -173.20525 | 33081 ft | 458 kts | 260° |
| 2026-04-23 09:17 | 19.41048 | -173.27145 | 33083 ft | 457 kts | 260° |
| 2026-04-23 09:18 | 19.39794 | -173.33746 | 33080 ft | 458 kts | 260° |
| 2026-04-23 09:18 | 19.38530 | -173.40381 | 33079 ft | 458 kts | 260° |
| 2026-04-23 09:19 | 19.37271 | -173.46974 | 33078 ft | 458 kts | 260° |
| 2026-04-23 09:19 | 19.36001 | -173.53615 | 33078 ft | 458 kts | 260° |
| 2026-04-23 09:20 | 19.34736 | -173.60216 | 33074 ft | 458 kts | 260° |
| 2026-04-23 09:20 | 19.33459 | -173.66862 | 33076 ft | 459 kts | 259° |
| 2026-04-23 09:21 | 19.32189 | -173.73462 | 33073 ft | 459 kts | 259° |
| 2026-04-23 09:21 | 19.30910 | -173.80095 | 33073 ft | 459 kts | 259° |
| 2026-04-23 09:22 | 19.29631 | -173.86714 | 33073 ft | 459 kts | 259° |
| 2026-04-23 09:22 | 19.28342 | -173.93367 | 33071 ft | 459 kts | 259° |
| 2026-04-23 09:23 | 19.27062 | -173.99965 | 33070 ft | 458 kts | 259° |
| 2026-04-23 09:23 | 19.25770 | -174.06612 | 33069 ft | 459 kts | 259° |
| 2026-04-23 09:24 | 19.24476 | -174.13254 | 33069 ft | 459 kts | 259° |
| 2026-04-23 09:24 | 19.23181 | -174.19888 | 33068 ft | 459 kts | 259° |
| 2026-04-23 09:25 | 19.21889 | -174.26492 | 33068 ft | 460 kts | 259° |
| 2026-04-23 09:25 | 19.20584 | -174.33153 | 33068 ft | 461 kts | 259° |
| 2026-04-23 09:26 | 19.19275 | -174.39819 | 33067 ft | 460 kts | 259° |
| 2026-04-23 09:26 | 19.17969 | -174.46458 | 33067 ft | 461 kts | 259° |
| 2026-04-23 09:27 | 19.16666 | -174.53067 | 33067 ft | 460 kts | 259° |
| 2026-04-23 09:27 | 19.15350 | -174.59726 | 33067 ft | 462 kts | 259° |
| 2026-04-23 09:28 | 19.14031 | -174.66389 | 33070 ft | 461 kts | 259° |
| 2026-04-23 09:28 | 19.12715 | -174.73029 | 33071 ft | 462 kts | 259° |
| 2026-04-23 09:29 | 19.11396 | -174.79668 | 33071 ft | 462 kts | 259° |
| 2026-04-23 09:29 | 19.10062 | -174.86366 | 33070 ft | 463 kts | 258° |
| 2026-04-23 09:30 | 19.08733 | -174.93024 | 33070 ft | 463 kts | 259° |
| 2026-04-23 09:30 | 19.07392 | -174.99734 | 33070 ft | 465 kts | 258° |
| 2026-04-23 09:31 | 19.06062 | -175.06377 | 33069 ft | 464 kts | 258° |
| 2026-04-23 09:31 | 19.04717 | -175.13077 | 33069 ft | 462 kts | 258° |
| 2026-04-23 09:32 | 19.03385 | -175.19704 | 33068 ft | 462 kts | 258° |
| 2026-04-23 09:32 | 19.02040 | -175.26379 | 33068 ft | 462 kts | 259° |
| 2026-04-23 09:33 | 19.00692 | -175.33057 | 33067 ft | 463 kts | 258° |
| 2026-04-23 09:33 | 18.99350 | -175.39694 | 33068 ft | 464 kts | 259° |
| 2026-04-23 09:34 | 18.97993 | -175.46393 | 33068 ft | 465 kts | 259° |
| 2026-04-23 09:34 | 18.96633 | -175.53090 | 33068 ft | 465 kts | 259° |
| 2026-04-23 09:35 | 18.95278 | -175.59752 | 33067 ft | 465 kts | 259° |
| 2026-04-23 09:35 | 18.93912 | -175.66454 | 33069 ft | 465 kts | 258° |
| 2026-04-23 09:36 | 18.92551 | -175.73117 | 33070 ft | 464 kts | 258° |
| 2026-04-23 09:36 | 18.91180 | -175.79819 | 33071 ft | 464 kts | 258° |
| 2026-04-23 09:37 | 18.89810 | -175.86500 | 33071 ft | 465 kts | 258° |
| 2026-04-23 09:37 | 18.88441 | -175.93170 | 33070 ft | 465 kts | 258° |
| 2026-04-23 09:38 | 18.87061 | -175.99876 | 33069 ft | 466 kts | 258° |
| 2026-04-23 09:38 | 18.85685 | -176.06549 | 33069 ft | 466 kts | 258° |
| 2026-04-23 09:39 | 18.84308 | -176.13219 | 33069 ft | 465 kts | 258° |
| 2026-04-23 09:39 | 18.82917 | -176.19940 | 33068 ft | 466 kts | 258° |
| 2026-04-23 09:40 | 18.81533 | -176.26614 | 33067 ft | 466 kts | 258° |
| 2026-04-23 09:40 | 18.80142 | -176.33311 | 33067 ft | 464 kts | 258° |
| 2026-04-23 09:41 | 18.78760 | -176.39951 | 33066 ft | 465 kts | 258° |
| 2026-04-23 09:41 | 18.77369 | -176.46625 | 33066 ft | 464 kts | 258° |
| 2026-04-23 09:42 | 18.75973 | -176.53307 | 33065 ft | 465 kts | 258° |
| 2026-04-23 09:42 | 18.74583 | -176.59947 | 33065 ft | 464 kts | 258° |
| 2026-04-23 09:43 | 18.73180 | -176.66640 | 33067 ft | 466 kts | 258° |
| 2026-04-23 09:43 | 18.71782 | -176.73296 | 33070 ft | 465 kts | 258° |
| 2026-04-23 09:44 | 18.70377 | -176.79974 | 33070 ft | 466 kts | 258° |
| 2026-04-23 09:44 | 18.68966 | -176.86664 | 33070 ft | 466 kts | 258° |
| 2026-04-23 09:45 | 18.67559 | -176.93329 | 33070 ft | 466 kts | 258° |
| 2026-04-23 09:45 | 18.66151 | -176.99979 | 33069 ft | 465 kts | 258° |
| 2026-04-23 09:46 | 18.64736 | -177.06654 | 33069 ft | 464 kts | 258° |
| 2026-04-23 09:46 | 18.63319 | -177.13327 | 33068 ft | 465 kts | 258° |
| 2026-04-23 09:47 | 18.61910 | -177.19951 | 33067 ft | 464 kts | 258° |
| 2026-04-23 09:47 | 18.60495 | -177.26588 | 33066 ft | 464 kts | 258° |
| 2026-04-23 09:48 | 18.59071 | -177.33258 | 33064 ft | 465 kts | 258° |
| 2026-04-23 09:48 | 18.57652 | -177.39890 | 33065 ft | 465 kts | 258° |
| 2026-04-23 09:49 | 18.56222 | -177.46564 | 33064 ft | 465 kts | 258° |
| 2026-04-23 09:49 | 18.54793 | -177.53218 | 33062 ft | 464 kts | 258° |
| 2026-04-23 09:50 | 18.53364 | -177.59860 | 33061 ft | 464 kts | 258° |
| 2026-04-23 09:50 | 18.51933 | -177.66501 | 33062 ft | 464 kts | 258° |
| 2026-04-23 09:51 | 18.50494 | -177.73169 | 33064 ft | 464 kts | 258° |
| 2026-04-23 09:51 | 18.49061 | -177.79794 | 33068 ft | 463 kts | 258° |
| 2026-04-23 09:52 | 18.47631 | -177.86397 | 33070 ft | 464 kts | 258° |
| 2026-04-23 09:52 | 18.46189 | -177.93043 | 33070 ft | 464 kts | 258° |
| 2026-04-23 09:53 | 18.44750 | -177.99660 | 33070 ft | 464 kts | 258° |
| 2026-04-23 09:53 | 18.43295 | -178.06342 | 33067 ft | 464 kts | 258° |
| 2026-04-23 09:54 | 18.41850 | -178.12965 | 33067 ft | 464 kts | 258° |
| 2026-04-23 09:54 | 18.40405 | -178.19579 | 33065 ft | 464 kts | 258° |
| 2026-04-23 09:55 | 18.38950 | -178.26224 | 33064 ft | 463 kts | 258° |
| 2026-04-23 09:55 | 18.37505 | -178.32812 | 33064 ft | 462 kts | 258° |
| 2026-04-23 09:56 | 18.36049 | -178.39439 | 33063 ft | 463 kts | 258° |
| 2026-04-23 09:56 | 18.34600 | -178.46024 | 33067 ft | 463 kts | 258° |
| 2026-04-23 09:57 | 18.33139 | -178.52650 | 33065 ft | 463 kts | 258° |
| 2026-04-23 09:57 | 18.31678 | -178.59267 | 33066 ft | 463 kts | 258° |
| 2026-04-23 09:58 | 18.30212 | -178.65892 | 33067 ft | 462 kts | 258° |
| 2026-04-23 09:58 | 18.28754 | -178.72473 | 33072 ft | 462 kts | 258° |
| 2026-04-23 09:59 | 18.27294 | -178.79048 | 33069 ft | 462 kts | 258° |
| 2026-04-23 09:59 | 18.25825 | -178.85658 | 33073 ft | 462 kts | 258° |
| 2026-04-23 10:00 | 18.24365 | -178.92210 | 33069 ft | 461 kts | 258° |
| 2026-04-23 10:00 | 18.22898 | -178.98787 | 33068 ft | 460 kts | 258° |
| 2026-04-23 10:01 | 18.21434 | -179.05336 | 33069 ft | 460 kts | 258° |
| 2026-04-23 10:01 | 18.19956 | -179.11940 | 33068 ft | 461 kts | 258° |
| 2026-04-23 10:02 | 18.18489 | -179.18481 | 33066 ft | 462 kts | 258° |
| 2026-04-23 10:02 | 18.17006 | -179.25081 | 33064 ft | 461 kts | 258° |
| 2026-04-23 10:03 | 18.15526 | -179.31659 | 33062 ft | 461 kts | 258° |
| 2026-04-23 10:03 | 18.14052 | -179.38199 | 33061 ft | 461 kts | 258° |
| 2026-04-23 10:04 | 18.12566 | -179.44781 | 33060 ft | 460 kts | 258° |
| 2026-04-23 10:04 | 18.11083 | -179.51338 | 33062 ft | 459 kts | 257° |
| 2026-04-23 10:05 | 18.09607 | -179.57857 | 33064 ft | 459 kts | 257° |
| 2026-04-23 10:05 | 18.08114 | -179.64435 | 33069 ft | 460 kts | 257° |
| 2026-04-23 10:06 | 18.06632 | -179.70955 | 33072 ft | 459 kts | 257° |
| 2026-04-23 10:06 | 18.05113 | -179.77629 | 33445 ft | 468 kts | 257° |
| 2026-04-23 10:06 | 18.04363 | -179.80920 | 33728 ft | 462 kts | 257° |
| 2026-04-23 10:07 | 18.03620 | -179.84178 | 34012 ft | 462 kts | 257° |
| 2026-04-23 10:07 | 18.02862 | -179.87495 | 34305 ft | 460 kts | 257° |
| 2026-04-23 10:07 | 18.02118 | -179.90752 | 34592 ft | 459 kts | 257° |
| 2026-04-23 10:07 | 18.01373 | -179.94011 | 34882 ft | 459 kts | 257° |
| 2026-04-23 10:08 | 18.00627 | -179.97267 | 35055 ft | 459 kts | 257° |
| 2026-04-23 10:08 | 17.99622 | 179.96140 | 35050 ft | 457 kts | 266° |
| 2026-04-23 10:09 | 17.98928 | 179.86122 | 35048 ft | 456 kts | 266° |
| 2026-04-23 10:09 | 17.98448 | 179.79485 | 35046 ft | 456 kts | 266° |
| 2026-04-23 10:10 | 17.97954 | 179.72812 | 35044 ft | 458 kts | 266° |
| 2026-04-23 10:10 | 17.97454 | 179.66161 | 35040 ft | 457 kts | 266° |
| 2026-04-23 10:11 | 17.96947 | 179.59465 | 35037 ft | 457 kts | 266° |
| 2026-04-23 10:11 | 17.96439 | 179.52809 | 35038 ft | 457 kts | 266° |
| 2026-04-23 10:12 | 17.95928 | 179.46161 | 35037 ft | 457 kts | 265° |
| 2026-04-23 10:12 | 17.95416 | 179.39520 | 35030 ft | 455 kts | 265° |
| 2026-04-23 10:13 | 17.94902 | 179.32893 | 35035 ft | 456 kts | 265° |
| 2026-04-23 10:13 | 17.94384 | 179.26239 | 35035 ft | 457 kts | 265° |
| 2026-04-23 10:14 | 17.93860 | 179.19544 | 35033 ft | 457 kts | 265° |
| 2026-04-23 10:14 | 17.93340 | 179.12918 | 35032 ft | 457 kts | 265° |
| 2026-04-23 10:15 | 17.92816 | 179.06279 | 35040 ft | 457 kts | 265° |
| 2026-04-23 10:15 | 17.92286 | 178.99594 | 35047 ft | 457 kts | 265° |
| 2026-04-23 10:16 | 17.91757 | 178.92955 | 35046 ft | 456 kts | 265° |
| 2026-04-23 10:16 | 17.91228 | 178.86331 | 35043 ft | 456 kts | 265° |
| 2026-04-23 10:17 | 17.90692 | 178.79662 | 35041 ft | 457 kts | 265° |
| 2026-04-23 10:17 | 17.90154 | 178.72995 | 35041 ft | 457 kts | 265° |
| 2026-04-23 10:18 | 17.89616 | 178.66353 | 35039 ft | 458 kts | 265° |
| 2026-04-23 10:18 | 17.89074 | 178.59688 | 35035 ft | 457 kts | 265° |
| 2026-04-23 10:19 | 17.88528 | 178.53003 | 35035 ft | 458 kts | 265° |
| 2026-04-23 10:19 | 17.87981 | 178.46338 | 35034 ft | 457 kts | 265° |
| 2026-04-23 10:20 | 17.87433 | 178.39684 | 35034 ft | 457 kts | 265° |
| 2026-04-23 10:20 | 17.86882 | 178.33022 | 35037 ft | 458 kts | 265° |
| 2026-04-23 10:21 | 17.86328 | 178.26355 | 35033 ft | 457 kts | 265° |
| 2026-04-23 10:21 | 17.85772 | 178.19688 | 35031 ft | 457 kts | 265° |
| 2026-04-23 10:22 | 17.85216 | 178.13048 | 35034 ft | 457 kts | 264° |
| 2026-04-23 10:22 | 17.84654 | 178.06361 | 35034 ft | 458 kts | 264° |
| 2026-04-23 10:23 | 17.84096 | 177.99754 | 35040 ft | 456 kts | 264° |
| 2026-04-23 10:23 | 17.83528 | 177.93053 | 35045 ft | 457 kts | 264° |
| 2026-04-23 10:24 | 17.82963 | 177.86418 | 35045 ft | 457 kts | 264° |
| 2026-04-23 10:24 | 17.82397 | 177.79796 | 35041 ft | 456 kts | 264° |
| 2026-04-23 10:25 | 17.81828 | 177.73167 | 35041 ft | 456 kts | 264° |
| 2026-04-23 10:25 | 17.81254 | 177.66510 | 35040 ft | 457 kts | 264° |
| 2026-04-23 10:26 | 17.80679 | 177.59862 | 35038 ft | 456 kts | 264° |
| 2026-04-23 10:26 | 17.80101 | 177.53210 | 35035 ft | 458 kts | 264° |
| 2026-04-23 10:27 | 17.79519 | 177.46530 | 35035 ft | 456 kts | 264° |
| 2026-04-23 10:27 | 17.78939 | 177.39908 | 35030 ft | 456 kts | 264° |
| 2026-04-23 10:28 | 17.78358 | 177.33293 | 35037 ft | 455 kts | 264° |
| 2026-04-23 10:28 | 17.77771 | 177.26642 | 35035 ft | 456 kts | 264° |
| 2026-04-23 10:29 | 17.77183 | 177.20004 | 35033 ft | 456 kts | 264° |
| 2026-04-23 10:29 | 17.76593 | 177.13370 | 35033 ft | 456 kts | 264° |
| 2026-04-23 10:30 | 17.76001 | 177.06731 | 35040 ft | 458 kts | 264° |
| 2026-04-23 10:30 | 17.75405 | 177.00082 | 35042 ft | 457 kts | 264° |
| 2026-04-23 10:31 | 17.74810 | 176.93459 | 35041 ft | 456 kts | 264° |
| 2026-04-23 10:31 | 17.74210 | 176.86822 | 35044 ft | 455 kts | 264° |
| 2026-04-23 10:32 | 17.73609 | 176.80190 | 35040 ft | 456 kts | 264° |
| 2026-04-23 10:32 | 17.73008 | 176.73581 | 35040 ft | 456 kts | 264° |
| 2026-04-23 10:33 | 17.72399 | 176.66913 | 35036 ft | 456 kts | 264° |
| 2026-04-23 10:33 | 17.71793 | 176.60292 | 35032 ft | 457 kts | 264° |
| 2026-04-23 10:34 | 17.71180 | 176.53636 | 35032 ft | 457 kts | 264° |
| 2026-04-23 10:34 | 17.70567 | 176.46995 | 35028 ft | 458 kts | 264° |
| 2026-04-23 10:35 | 17.69951 | 176.40346 | 35022 ft | 457 kts | 264° |
| 2026-04-23 10:35 | 17.69332 | 176.33688 | 35025 ft | 456 kts | 263° |
| 2026-04-23 10:36 | 17.68716 | 176.27087 | 35029 ft | 457 kts | 263° |
| 2026-04-23 10:36 | 17.68093 | 176.20445 | 35030 ft | 457 kts | 263° |
| 2026-04-23 10:37 | 17.67470 | 176.13820 | 35035 ft | 458 kts | 263° |
| 2026-04-23 10:37 | 17.66839 | 176.07135 | 35039 ft | 458 kts | 263° |
| 2026-04-23 10:38 | 17.66210 | 176.00494 | 35033 ft | 458 kts | 263° |
| 2026-04-23 10:38 | 17.65580 | 175.93870 | 35038 ft | 458 kts | 263° |
| 2026-04-23 10:39 | 17.64946 | 175.87224 | 35035 ft | 457 kts | 263° |
| 2026-04-23 10:39 | 17.64307 | 175.80547 | 35034 ft | 458 kts | 263° |
| 2026-04-23 10:40 | 17.63670 | 175.73914 | 35025 ft | 457 kts | 263° |
| 2026-04-23 10:40 | 17.63027 | 175.67250 | 35022 ft | 457 kts | 263° |
| 2026-04-23 10:41 | 17.62386 | 175.60628 | 35023 ft | 457 kts | 263° |
| 2026-04-23 10:41 | 17.61738 | 175.53958 | 35018 ft | 458 kts | 263° |
| 2026-04-23 10:42 | 17.61092 | 175.47325 | 35019 ft | 458 kts | 263° |
| 2026-04-23 10:42 | 17.60443 | 175.40688 | 35018 ft | 457 kts | 263° |
| 2026-04-23 10:43 | 17.59794 | 175.34073 | 35017 ft | 457 kts | 263° |
| 2026-04-23 10:43 | 17.59141 | 175.27444 | 35023 ft | 458 kts | 263° |
| 2026-04-23 10:44 | 17.58485 | 175.20802 | 35019 ft | 457 kts | 263° |
| 2026-04-23 10:44 | 17.57827 | 175.14174 | 35020 ft | 457 kts | 263° |
| 2026-04-23 10:45 | 17.57168 | 175.07550 | 35021 ft | 457 kts | 263° |
| 2026-04-23 10:45 | 17.56501 | 175.00871 | 35019 ft | 458 kts | 263° |
| 2026-04-23 10:46 | 17.55839 | 174.94258 | 35018 ft | 458 kts | 263° |
| 2026-04-23 10:46 | 17.55170 | 174.87607 | 35017 ft | 458 kts | 263° |
| 2026-04-23 10:47 | 17.54502 | 174.80988 | 35018 ft | 456 kts | 263° |
| 2026-04-23 10:47 | 17.53830 | 174.74342 | 35018 ft | 458 kts | 263° |
| 2026-04-23 10:48 | 17.53157 | 174.67720 | 35016 ft | 457 kts | 263° |
| 2026-04-23 10:48 | 17.52485 | 174.61121 | 35017 ft | 457 kts | 263° |
| 2026-04-23 10:49 | 17.51803 | 174.54452 | 35015 ft | 457 kts | 263° |
| 2026-04-23 10:49 | 17.51126 | 174.47845 | 35016 ft | 457 kts | 263° |
| 2026-04-23 10:50 | 17.50446 | 174.41235 | 35019 ft | 457 kts | 263° |
| 2026-04-23 10:50 | 17.49760 | 174.34593 | 35015 ft | 456 kts | 263° |
| 2026-04-23 10:51 | 17.49073 | 174.27960 | 35023 ft | 457 kts | 263° |
| 2026-04-23 10:51 | 17.48385 | 174.21344 | 35019 ft | 456 kts | 263° |
| 2026-04-23 10:52 | 17.47697 | 174.14746 | 35022 ft | 456 kts | 263° |
| 2026-04-23 10:52 | 17.47005 | 174.08133 | 35021 ft | 457 kts | 263° |
| 2026-04-23 10:53 | 17.46309 | 174.01495 | 35019 ft | 456 kts | 263° |
| 2026-04-23 10:53 | 17.45615 | 173.94902 | 35018 ft | 457 kts | 263° |
| 2026-04-23 10:54 | 17.44913 | 173.88254 | 35024 ft | 457 kts | 263° |
| 2026-04-23 10:54 | 17.44213 | 173.81653 | 35026 ft | 456 kts | 263° |
| 2026-04-23 10:55 | 17.43512 | 173.75055 | 35026 ft | 456 kts | 263° |
| 2026-04-23 10:55 | 17.42809 | 173.68459 | 35026 ft | 456 kts | 263° |
| 2026-04-23 10:56 | 17.42098 | 173.61815 | 35025 ft | 457 kts | 263° |
| 2026-04-23 10:56 | 17.41390 | 173.55212 | 35026 ft | 457 kts | 263° |
| 2026-04-23 10:57 | 17.40678 | 173.48601 | 35025 ft | 457 kts | 263° |
| 2026-04-23 10:57 | 17.39963 | 173.41986 | 35025 ft | 457 kts | 263° |
| 2026-04-23 10:58 | 17.39245 | 173.35350 | 35024 ft | 457 kts | 263° |
| 2026-04-23 10:58 | 17.38526 | 173.28735 | 35029 ft | 457 kts | 263° |
| 2026-04-23 10:59 | 17.37805 | 173.22122 | 35030 ft | 457 kts | 263° |
| 2026-04-23 10:59 | 17.37082 | 173.15503 | 35028 ft | 457 kts | 263° |
| 2026-04-23 11:00 | 17.36355 | 173.08878 | 35029 ft | 457 kts | 263° |
| 2026-04-23 11:00 | 17.35626 | 173.02257 | 35027 ft | 458 kts | 263° |
| 2026-04-23 11:01 | 17.34895 | 172.95625 | 35028 ft | 458 kts | 263° |
| 2026-04-23 11:01 | 17.34164 | 172.89027 | 35027 ft | 457 kts | 263° |
| 2026-04-23 11:02 | 17.33427 | 172.82382 | 35027 ft | 457 kts | 263° |
| 2026-04-23 11:02 | 17.32692 | 172.75784 | 35026 ft | 457 kts | 263° |
| 2026-04-23 11:03 | 17.31954 | 172.69179 | 35024 ft | 457 kts | 263° |
| 2026-04-23 11:03 | 17.31214 | 172.62570 | 35024 ft | 457 kts | 263° |
| 2026-04-23 11:04 | 17.30468 | 172.55934 | 35025 ft | 457 kts | 263° |
| 2026-04-23 11:04 | 17.29723 | 172.49326 | 35023 ft | 458 kts | 263° |
| 2026-04-23 11:05 | 17.28975 | 172.42708 | 35024 ft | 457 kts | 263° |
| 2026-04-23 11:05 | 17.28224 | 172.36087 | 35024 ft | 457 kts | 263° |
| 2026-04-23 11:06 | 17.27095 | 172.26164 | 35029 ft | 457 kts | 262° |
| 2026-04-23 11:07 | 17.26341 | 172.19563 | 35027 ft | 457 kts | 262° |
| 2026-04-23 11:07 | 17.25584 | 172.12950 | 35027 ft | 457 kts | 262° |
| 2026-04-23 11:08 | 17.24826 | 172.06357 | 35026 ft | 457 kts | 262° |
| 2026-04-23 11:08 | 17.24066 | 171.99759 | 35026 ft | 457 kts | 262° |
| 2026-04-23 11:09 | 17.23299 | 171.93123 | 35027 ft | 457 kts | 262° |
| 2026-04-23 11:09 | 17.22533 | 171.86517 | 35025 ft | 458 kts | 263° |
| 2026-04-23 11:10 | 17.21765 | 171.79904 | 35019 ft | 457 kts | 263° |
| 2026-04-23 11:10 | 17.20996 | 171.73311 | 35016 ft | 458 kts | 263° |
| 2026-04-23 11:11 | 17.20224 | 171.66711 | 35010 ft | 456 kts | 262° |
| 2026-04-23 11:11 | 17.19448 | 171.60086 | 35010 ft | 457 kts | 263° |
| 2026-04-23 11:12 | 17.18670 | 171.53470 | 35007 ft | 457 kts | 263° |
| 2026-04-23 11:12 | 17.17893 | 171.46886 | 35008 ft | 457 kts | 263° |
| 2026-04-23 11:13 | 17.17114 | 171.40295 | 35006 ft | 457 kts | 263° |
| 2026-04-23 11:13 | 17.16326 | 171.33649 | 35011 ft | 458 kts | 262° |
| 2026-04-23 11:14 | 17.15542 | 171.27057 | 35012 ft | 457 kts | 262° |
| 2026-04-23 11:14 | 17.14752 | 171.20438 | 35013 ft | 458 kts | 262° |
| 2026-04-23 11:15 | 17.13963 | 171.13841 | 35010 ft | 457 kts | 262° |
| 2026-04-23 11:15 | 17.13170 | 171.07225 | 35011 ft | 459 kts | 262° |
| 2026-04-23 11:16 | 17.12370 | 171.00572 | 35010 ft | 458 kts | 262° |
| 2026-04-23 11:16 | 17.11572 | 170.93956 | 35010 ft | 459 kts | 262° |
| 2026-04-23 11:17 | 17.10775 | 170.87364 | 35008 ft | 459 kts | 262° |
| 2026-04-23 11:17 | 17.09967 | 170.80705 | 35010 ft | 460 kts | 262° |
| 2026-04-23 11:18 | 17.09164 | 170.74101 | 35009 ft | 459 kts | 263° |
| 2026-04-23 11:18 | 17.08355 | 170.67464 | 35007 ft | 459 kts | 263° |
| 2026-04-23 11:19 | 17.07545 | 170.60844 | 35007 ft | 458 kts | 262° |
| 2026-04-23 11:19 | 17.06735 | 170.54234 | 35008 ft | 460 kts | 262° |
| 2026-04-23 11:20 | 17.05918 | 170.47589 | 35006 ft | 459 kts | 262° |
| 2026-04-23 11:20 | 17.05102 | 170.40974 | 35006 ft | 459 kts | 262° |
| 2026-04-23 11:21 | 17.04284 | 170.34357 | 35006 ft | 460 kts | 262° |
| 2026-04-23 11:21 | 17.03459 | 170.27704 | 35008 ft | 459 kts | 262° |
| 2026-04-23 11:22 | 17.02638 | 170.21091 | 35008 ft | 459 kts | 262° |
| 2026-04-23 11:22 | 17.01812 | 170.14465 | 35008 ft | 459 kts | 262° |
| 2026-04-23 11:23 | 17.00983 | 170.07835 | 35009 ft | 460 kts | 262° |
| 2026-04-23 11:23 | 17.00154 | 170.01215 | 35007 ft | 460 kts | 262° |
| 2026-04-23 11:24 | 16.99524 | 169.94559 | 35006 ft | 460 kts | 265° |
| 2026-04-23 11:24 | 16.99049 | 169.87903 | 35006 ft | 460 kts | 265° |
| 2026-04-23 11:25 | 16.98555 | 169.81206 | 35006 ft | 460 kts | 265° |
| 2026-04-23 11:25 | 16.98054 | 169.74554 | 35003 ft | 459 kts | 265° |
| 2026-04-23 11:26 | 16.97547 | 169.67909 | 35003 ft | 460 kts | 265° |
| 2026-04-23 11:26 | 16.97035 | 169.61244 | 35008 ft | 459 kts | 265° |
| 2026-04-23 11:27 | 16.96520 | 169.54601 | 35004 ft | 459 kts | 265° |
| 2026-04-23 11:27 | 16.96000 | 169.47914 | 35005 ft | 460 kts | 265° |
| 2026-04-23 11:28 | 16.95482 | 169.41286 | 35002 ft | 459 kts | 265° |
| 2026-04-23 11:28 | 16.94960 | 169.34645 | 35003 ft | 458 kts | 265° |
| 2026-04-23 11:29 | 16.94434 | 169.27975 | 35009 ft | 458 kts | 265° |
| 2026-04-23 11:29 | 16.93908 | 169.21343 | 35008 ft | 459 kts | 265° |
| 2026-04-23 11:30 | 16.93380 | 169.14700 | 35007 ft | 459 kts | 265° |
| 2026-04-23 11:30 | 16.92848 | 169.08048 | 35006 ft | 460 kts | 265° |
| 2026-04-23 11:31 | 16.92315 | 169.01404 | 35007 ft | 460 kts | 265° |
| 2026-04-23 11:31 | 16.91776 | 168.94714 | 35007 ft | 459 kts | 265° |
| 2026-04-23 11:32 | 16.91242 | 168.88104 | 35006 ft | 458 kts | 265° |
| 2026-04-23 11:32 | 16.90704 | 168.81488 | 35006 ft | 457 kts | 265° |
| 2026-04-23 11:33 | 16.90162 | 168.74837 | 35005 ft | 458 kts | 265° |
| 2026-04-23 11:33 | 16.89621 | 168.68233 | 35006 ft | 458 kts | 265° |
| 2026-04-23 11:34 | 16.89074 | 168.61572 | 35006 ft | 458 kts | 265° |
| 2026-04-23 11:34 | 16.88528 | 168.54956 | 35005 ft | 459 kts | 265° |
| 2026-04-23 11:35 | 16.87980 | 168.48338 | 35006 ft | 458 kts | 265° |
| 2026-04-23 11:35 | 16.87427 | 168.41689 | 35004 ft | 458 kts | 265° |
| 2026-04-23 11:36 | 16.86876 | 168.35084 | 35005 ft | 457 kts | 265° |
| 2026-04-23 11:36 | 16.86322 | 168.28477 | 35009 ft | 458 kts | 264° |
| 2026-04-23 11:37 | 16.85762 | 168.21829 | 35009 ft | 458 kts | 264° |
| 2026-04-23 11:37 | 16.85204 | 168.15222 | 35008 ft | 458 kts | 264° |
| 2026-04-23 11:38 | 16.84639 | 168.08560 | 35008 ft | 458 kts | 264° |
| 2026-04-23 11:38 | 16.84075 | 168.01936 | 35006 ft | 459 kts | 264° |
| 2026-04-23 11:39 | 16.83510 | 167.95322 | 35008 ft | 458 kts | 264° |
| 2026-04-23 11:39 | 16.82944 | 167.88716 | 35008 ft | 458 kts | 264° |
| 2026-04-23 11:40 | 16.82370 | 167.82056 | 35005 ft | 458 kts | 264° |
| 2026-04-23 11:40 | 16.81800 | 167.75459 | 35005 ft | 458 kts | 264° |
| 2026-04-23 11:41 | 16.81224 | 167.68817 | 35009 ft | 458 kts | 264° |
| 2026-04-23 11:41 | 16.80649 | 167.62213 | 35017 ft | 458 kts | 265° |
| 2026-04-23 11:42 | 16.80068 | 167.55563 | 35018 ft | 458 kts | 264° |
| 2026-04-23 11:42 | 16.79488 | 167.48952 | 35014 ft | 459 kts | 264° |
| 2026-04-23 11:43 | 16.78900 | 167.42284 | 35013 ft | 458 kts | 264° |
| 2026-04-23 11:43 | 16.78314 | 167.35654 | 35015 ft | 459 kts | 264° |
| 2026-04-23 11:44 | 16.77727 | 167.29036 | 35026 ft | 459 kts | 264° |
| 2026-04-23 11:44 | 16.77139 | 167.22423 | 35024 ft | 459 kts | 264° |
| 2026-04-23 11:45 | 16.76545 | 167.15773 | 35022 ft | 458 kts | 264° |
| 2026-04-23 11:45 | 16.75951 | 167.09151 | 35025 ft | 458 kts | 264° |
| 2026-04-23 11:46 | 16.75356 | 167.02542 | 35025 ft | 459 kts | 264° |
| 2026-04-23 11:46 | 16.74754 | 166.95882 | 35024 ft | 459 kts | 264° |
| 2026-04-23 11:47 | 16.74154 | 166.89262 | 35022 ft | 459 kts | 264° |
| 2026-04-23 11:47 | 16.73551 | 166.82636 | 35022 ft | 459 kts | 264° |
| 2026-04-23 11:48 | 16.72942 | 166.75970 | 35023 ft | 459 kts | 264° |
| 2026-04-23 11:48 | 16.72338 | 166.69371 | 35020 ft | 458 kts | 264° |
| 2026-04-23 11:49 | 16.71730 | 166.62761 | 35020 ft | 458 kts | 264° |
| 2026-04-23 11:49 | 16.71117 | 166.56116 | 35020 ft | 458 kts | 264° |
| 2026-04-23 11:50 | 16.70505 | 166.49507 | 35020 ft | 457 kts | 264° |
| 2026-04-23 11:50 | 16.69892 | 166.42909 | 35020 ft | 458 kts | 264° |
| 2026-04-23 11:51 | 16.69271 | 166.36253 | 35019 ft | 458 kts | 264° |
| 2026-04-23 11:51 | 16.68649 | 166.29608 | 35023 ft | 458 kts | 264° |
| 2026-04-23 11:52 | 16.68027 | 166.22981 | 35022 ft | 458 kts | 264° |
| 2026-04-23 11:52 | 16.67404 | 166.16370 | 35022 ft | 457 kts | 264° |
| 2026-04-23 11:53 | 16.66780 | 166.09775 | 35022 ft | 457 kts | 264° |
| 2026-04-23 11:53 | 16.66152 | 166.03152 | 35018 ft | 457 kts | 264° |
| 2026-04-23 11:54 | 16.65524 | 165.96558 | 35013 ft | 457 kts | 264° |
| 2026-04-23 11:54 | 16.64895 | 165.89969 | 35010 ft | 458 kts | 264° |
| 2026-04-23 11:55 | 16.64258 | 165.83321 | 35009 ft | 458 kts | 264° |
| 2026-04-23 11:55 | 16.63623 | 165.76717 | 35010 ft | 457 kts | 264° |
| 2026-04-23 11:56 | 16.62987 | 165.70128 | 35011 ft | 457 kts | 264° |
| 2026-04-23 11:56 | 16.62349 | 165.63544 | 35010 ft | 457 kts | 264° |
| 2026-04-23 11:57 | 16.61710 | 165.56964 | 35010 ft | 456 kts | 264° |
| 2026-04-23 11:57 | 16.61069 | 165.50386 | 35013 ft | 456 kts | 264° |
| 2026-04-23 11:58 | 16.60422 | 165.43764 | 35012 ft | 456 kts | 264° |
| 2026-04-23 11:58 | 16.59777 | 165.37187 | 35013 ft | 456 kts | 264° |
| 2026-04-23 11:59 | 16.59130 | 165.30620 | 35018 ft | 457 kts | 264° |
| 2026-04-23 11:59 | 16.58479 | 165.24022 | 35020 ft | 457 kts | 264° |
| 2026-04-23 12:00 | 16.57825 | 165.17421 | 35019 ft | 457 kts | 264° |
| 2026-04-23 12:00 | 16.57170 | 165.10823 | 35017 ft | 457 kts | 264° |
| 2026-04-23 12:01 | 16.56514 | 165.04248 | 35020 ft | 456 kts | 264° |
| 2026-04-23 12:01 | 16.55855 | 164.97662 | 35020 ft | 456 kts | 264° |
| 2026-04-23 12:02 | 16.55191 | 164.91040 | 35019 ft | 456 kts | 264° |
| 2026-04-23 12:02 | 16.54527 | 164.84447 | 35020 ft | 456 kts | 264° |
| 2026-04-23 12:03 | 16.53862 | 164.77858 | 35016 ft | 456 kts | 264° |
| 2026-04-23 12:03 | 16.53197 | 164.71294 | 35016 ft | 455 kts | 264° |
| 2026-04-23 12:04 | 16.52531 | 164.64740 | 35016 ft | 455 kts | 264° |
| 2026-04-23 12:04 | 16.51862 | 164.58180 | 35014 ft | 456 kts | 264° |
| 2026-04-23 12:05 | 16.51188 | 164.51593 | 35014 ft | 455 kts | 264° |
| 2026-04-23 12:05 | 16.50518 | 164.45056 | 35013 ft | 455 kts | 264° |
| 2026-04-23 12:06 | 16.49840 | 164.38466 | 35016 ft | 456 kts | 264° |
| 2026-04-23 12:06 | 16.48821 | 164.28601 | 35020 ft | 456 kts | 264° |
| 2026-04-23 12:07 | 16.48140 | 164.22037 | 35019 ft | 456 kts | 264° |
| 2026-04-23 12:07 | 16.47459 | 164.15488 | 35019 ft | 456 kts | 264° |
| 2026-04-23 12:08 | 16.46775 | 164.08934 | 35016 ft | 455 kts | 264° |
| 2026-04-23 12:08 | 16.46086 | 164.02353 | 35019 ft | 455 kts | 264° |
| 2026-04-23 12:09 | 16.45399 | 163.95810 | 35016 ft | 456 kts | 264° |
| 2026-04-23 12:09 | 16.44711 | 163.89269 | 35016 ft | 455 kts | 264° |
| 2026-04-23 12:10 | 16.44014 | 163.82669 | 35016 ft | 455 kts | 264° |
| 2026-04-23 12:10 | 16.43321 | 163.76126 | 35015 ft | 456 kts | 264° |
| 2026-04-23 12:11 | 16.42625 | 163.69575 | 35014 ft | 456 kts | 264° |
| 2026-04-23 12:11 | 16.41922 | 163.62985 | 35013 ft | 455 kts | 264° |
| 2026-04-23 12:12 | 16.41224 | 163.56451 | 35012 ft | 455 kts | 264° |
| 2026-04-23 12:12 | 16.40518 | 163.49870 | 35013 ft | 456 kts | 264° |
| 2026-04-23 12:13 | 16.39814 | 163.43320 | 35011 ft | 455 kts | 264° |
| 2026-04-23 12:13 | 16.39103 | 163.36731 | 35004 ft | 456 kts | 264° |
| 2026-04-23 12:14 | 16.38390 | 163.30135 | 35002 ft | 457 kts | 264° |
| 2026-04-23 12:14 | 16.37678 | 163.23567 | 35002 ft | 457 kts | 264° |
| 2026-04-23 12:15 | 16.36960 | 163.16968 | 35004 ft | 456 kts | 264° |
| 2026-04-23 12:15 | 16.36245 | 163.10416 | 35000 ft | 456 kts | 264° |
| 2026-04-23 12:16 | 16.35525 | 163.03841 | 35002 ft | 456 kts | 264° |
| 2026-04-23 12:16 | 16.34803 | 162.97263 | 34993 ft | 455 kts | 264° |
| 2026-04-23 12:17 | 16.34084 | 162.90727 | 34996 ft | 456 kts | 264° |
| 2026-04-23 12:17 | 16.33356 | 162.84137 | 34996 ft | 457 kts | 264° |
| 2026-04-23 12:18 | 16.32629 | 162.77570 | 34991 ft | 458 kts | 264° |
| 2026-04-23 12:18 | 16.31901 | 162.71010 | 34992 ft | 457 kts | 264° |
| 2026-04-23 12:19 | 16.31170 | 162.64444 | 34989 ft | 457 kts | 264° |
| 2026-04-23 12:19 | 16.30433 | 162.57844 | 34996 ft | 457 kts | 264° |
| 2026-04-23 12:20 | 16.29699 | 162.51288 | 34998 ft | 456 kts | 264° |
| 2026-04-23 12:20 | 16.28964 | 162.44740 | 34998 ft | 456 kts | 264° |
| 2026-04-23 12:21 | 16.28222 | 162.38155 | 34998 ft | 456 kts | 264° |
| 2026-04-23 12:21 | 16.27482 | 162.31606 | 35008 ft | 456 kts | 264° |
| 2026-04-23 12:22 | 16.26740 | 162.25052 | 35009 ft | 457 kts | 263° |
| 2026-04-23 12:22 | 16.25992 | 162.18460 | 35009 ft | 457 kts | 264° |
| 2026-04-23 12:23 | 16.25243 | 162.11887 | 35009 ft | 458 kts | 264° |
| 2026-04-23 12:23 | 16.24494 | 162.05322 | 35008 ft | 457 kts | 263° |
| 2026-04-23 12:24 | 16.23740 | 161.98743 | 35007 ft | 456 kts | 263° |
| 2026-04-23 12:24 | 16.22989 | 161.92200 | 35007 ft | 456 kts | 264° |
| 2026-04-23 12:25 | 16.22232 | 161.85625 | 35007 ft | 456 kts | 264° |
| 2026-04-23 12:25 | 16.21474 | 161.79059 | 35006 ft | 456 kts | 264° |
| 2026-04-23 12:26 | 16.20713 | 161.72492 | 35006 ft | 457 kts | 264° |
| 2026-04-23 12:26 | 16.19947 | 161.65891 | 35006 ft | 458 kts | 264° |
| 2026-04-23 12:27 | 16.19181 | 161.59312 | 35005 ft | 458 kts | 264° |
| 2026-04-23 12:27 | 16.18414 | 161.52737 | 35005 ft | 457 kts | 264° |
| 2026-04-23 12:28 | 16.17646 | 161.46181 | 35004 ft | 457 kts | 264° |
| 2026-04-23 12:28 | 16.16873 | 161.39589 | 35005 ft | 457 kts | 264° |
| 2026-04-23 12:29 | 16.16101 | 161.33028 | 35009 ft | 457 kts | 263° |
| 2026-04-23 12:29 | 16.15325 | 161.26450 | 35009 ft | 457 kts | 264° |
| 2026-04-23 12:30 | 16.14548 | 161.19884 | 35011 ft | 457 kts | 264° |
| 2026-04-23 12:30 | 16.13768 | 161.13312 | 35008 ft | 458 kts | 264° |
| 2026-04-23 12:31 | 16.12989 | 161.06757 | 35009 ft | 458 kts | 264° |
| 2026-04-23 12:31 | 16.12204 | 161.00179 | 35007 ft | 458 kts | 264° |
| 2026-04-23 12:32 | 16.11420 | 160.93619 | 35009 ft | 458 kts | 263° |
| 2026-04-23 12:32 | 16.10633 | 160.87056 | 35008 ft | 458 kts | 263° |
| 2026-04-23 12:33 | 16.09838 | 160.80437 | 35007 ft | 457 kts | 263° |
| 2026-04-23 12:33 | 16.09047 | 160.73875 | 35006 ft | 457 kts | 264° |
| 2026-04-23 12:34 | 16.08256 | 160.67329 | 35006 ft | 458 kts | 264° |
| 2026-04-23 12:34 | 16.07458 | 160.60747 | 35006 ft | 457 kts | 263° |
| 2026-04-23 12:35 | 16.06662 | 160.54189 | 35005 ft | 457 kts | 264° |
| 2026-04-23 12:35 | 16.05866 | 160.47650 | 35005 ft | 458 kts | 264° |
| 2026-04-23 12:36 | 16.05066 | 160.41097 | 35005 ft | 457 kts | 264° |
| 2026-04-23 12:36 | 16.04262 | 160.34529 | 35006 ft | 458 kts | 263° |
| 2026-04-23 12:37 | 16.03454 | 160.27949 | 35009 ft | 457 kts | 263° |
| 2026-04-23 12:37 | 16.02649 | 160.21402 | 35006 ft | 457 kts | 263° |
| 2026-04-23 12:38 | 16.01843 | 160.14868 | 35008 ft | 457 kts | 263° |
| 2026-04-23 12:38 | 16.01032 | 160.08308 | 35009 ft | 457 kts | 263° |
| 2026-04-23 12:39 | 16.00221 | 160.01764 | 35005 ft | 456 kts | 263° |
| 2026-04-23 12:39 | 15.99566 | 159.95166 | 35005 ft | 457 kts | 266° |
| 2026-04-23 12:40 | 15.99086 | 159.88573 | 35008 ft | 457 kts | 266° |
| 2026-04-23 12:40 | 15.98593 | 159.82005 | 35004 ft | 457 kts | 266° |
| 2026-04-23 12:41 | 15.98088 | 159.75398 | 34998 ft | 456 kts | 266° |
| 2026-04-23 12:41 | 15.97580 | 159.68845 | 34989 ft | 455 kts | 266° |
| 2026-04-23 12:42 | 15.97065 | 159.62251 | 34988 ft | 456 kts | 266° |
| 2026-04-23 12:42 | 15.96551 | 159.55702 | 34988 ft | 455 kts | 266° |
| 2026-04-23 12:43 | 15.96034 | 159.49162 | 34981 ft | 455 kts | 266° |
| 2026-04-23 12:43 | 15.95512 | 159.42578 | 34986 ft | 455 kts | 266° |
| 2026-04-23 12:44 | 15.94992 | 159.36046 | 34983 ft | 455 kts | 266° |
| 2026-04-23 12:44 | 15.94465 | 159.29459 | 34986 ft | 456 kts | 265° |
| 2026-04-23 12:45 | 15.93939 | 159.22916 | 34986 ft | 455 kts | 265° |
| 2026-04-23 12:45 | 15.93413 | 159.16391 | 34986 ft | 454 kts | 265° |
| 2026-04-23 12:46 | 15.92883 | 159.09839 | 34986 ft | 454 kts | 265° |
| 2026-04-23 12:46 | 15.92349 | 159.03252 | 34984 ft | 454 kts | 266° |
| 2026-04-23 12:47 | 15.91817 | 158.96730 | 34987 ft | 455 kts | 266° |
| 2026-04-23 12:47 | 15.91283 | 158.90204 | 34985 ft | 454 kts | 265° |
| 2026-04-23 12:48 | 15.90746 | 158.83662 | 34982 ft | 455 kts | 265° |
| 2026-04-23 12:48 | 15.90205 | 158.77101 | 34984 ft | 455 kts | 265° |
| 2026-04-23 12:49 | 15.89660 | 158.70520 | 34983 ft | 455 kts | 265° |
| 2026-04-23 12:49 | 15.89117 | 158.63974 | 34983 ft | 454 kts | 265° |
| 2026-04-23 12:50 | 15.88575 | 158.57466 | 34983 ft | 454 kts | 265° |
| 2026-04-23 12:50 | 15.88027 | 158.50925 | 34983 ft | 454 kts | 265° |
| 2026-04-23 12:51 | 15.87476 | 158.44353 | 34981 ft | 455 kts | 265° |
| 2026-04-23 12:51 | 15.86925 | 158.37822 | 34981 ft | 454 kts | 265° |
| 2026-04-23 12:52 | 15.86373 | 158.31291 | 34986 ft | 454 kts | 265° |
| 2026-04-23 12:52 | 15.85819 | 158.24759 | 34986 ft | 454 kts | 265° |
| 2026-04-23 12:53 | 15.85259 | 158.18192 | 34984 ft | 455 kts | 265° |
| 2026-04-23 12:53 | 15.84700 | 158.11655 | 34986 ft | 454 kts | 265° |
| 2026-04-23 12:54 | 15.84141 | 158.05133 | 34985 ft | 454 kts | 265° |
| 2026-04-23 12:54 | 15.83579 | 157.98612 | 34985 ft | 455 kts | 265° |
| 2026-04-23 12:55 | 15.83012 | 157.92042 | 34987 ft | 454 kts | 265° |
| 2026-04-23 12:55 | 15.82446 | 157.85518 | 34987 ft | 454 kts | 265° |
| 2026-04-23 12:56 | 15.81877 | 157.78976 | 34986 ft | 454 kts | 265° |
| 2026-04-23 12:56 | 15.81307 | 157.72452 | 34986 ft | 454 kts | 265° |
| 2026-04-23 12:57 | 15.80732 | 157.65883 | 34984 ft | 455 kts | 265° |
| 2026-04-23 12:57 | 15.80160 | 157.59375 | 34985 ft | 454 kts | 265° |
| 2026-04-23 12:58 | 15.79583 | 157.52840 | 34984 ft | 454 kts | 265° |
| 2026-04-23 12:58 | 15.79002 | 157.46272 | 34984 ft | 454 kts | 265° |
| 2026-04-23 12:59 | 15.78424 | 157.39760 | 34983 ft | 454 kts | 265° |
| 2026-04-23 12:59 | 15.77843 | 157.33243 | 34985 ft | 454 kts | 265° |
| 2026-04-23 13:00 | 15.77258 | 157.26708 | 34984 ft | 455 kts | 265° |
| 2026-04-23 13:00 | 15.76671 | 157.20166 | 34985 ft | 455 kts | 265° |
| 2026-04-23 13:01 | 15.76079 | 157.13586 | 34983 ft | 454 kts | 265° |
| 2026-04-23 13:01 | 15.75489 | 157.07062 | 34983 ft | 455 kts | 265° |
| 2026-04-23 13:02 | 15.74898 | 157.00542 | 34982 ft | 455 kts | 265° |
| 2026-04-23 13:02 | 15.74305 | 156.94022 | 34979 ft | 454 kts | 265° |
| 2026-04-23 13:03 | 15.73707 | 156.87471 | 34981 ft | 454 kts | 265° |
| 2026-04-23 13:03 | 15.73110 | 156.80951 | 34978 ft | 455 kts | 265° |
| 2026-04-23 13:04 | 15.72508 | 156.74393 | 34978 ft | 454 kts | 265° |
| 2026-04-23 13:04 | 15.71907 | 156.67874 | 34978 ft | 454 kts | 265° |
| 2026-04-23 13:05 | 15.71306 | 156.61374 | 34978 ft | 453 kts | 265° |
| 2026-04-23 13:05 | 15.70702 | 156.54863 | 34978 ft | 454 kts | 265° |
| 2026-04-23 13:06 | 15.69787 | 156.45046 | 34977 ft | 453 kts | 265° |
| 2026-04-23 13:07 | 15.69180 | 156.38548 | 34976 ft | 453 kts | 265° |
| 2026-04-23 13:07 | 15.68570 | 156.32044 | 34974 ft | 453 kts | 265° |
| 2026-04-23 13:08 | 15.67955 | 156.25516 | 34967 ft | 453 kts | 265° |
| 2026-04-23 13:08 | 15.67341 | 156.19011 | 34967 ft | 453 kts | 265° |
| 2026-04-23 13:09 | 15.66725 | 156.12509 | 34967 ft | 453 kts | 265° |
| 2026-04-23 13:09 | 15.66104 | 156.05968 | 34971 ft | 453 kts | 265° |
| 2026-04-23 13:10 | 15.65788 | 156.02657 | 34974 ft | 454 kts | 265° |
| 2026-04-23 13:10 | 15.65311 | 155.97661 | 34977 ft | 454 kts | 265° |
| 2026-04-23 13:11 | 15.64688 | 155.91156 | 34976 ft | 453 kts | 265° |
| 2026-04-23 13:11 | 15.64064 | 155.84653 | 34974 ft | 453 kts | 265° |
| 2026-04-23 13:12 | 15.63438 | 155.78159 | 34976 ft | 453 kts | 265° |
| 2026-04-23 13:12 | 15.62810 | 155.71655 | 34978 ft | 453 kts | 265° |
| 2026-04-23 13:13 | 15.62180 | 155.65155 | 34976 ft | 453 kts | 265° |
| 2026-04-23 13:13 | 15.61543 | 155.58600 | 34974 ft | 454 kts | 265° |
| 2026-04-23 13:14 | 15.60910 | 155.52115 | 34972 ft | 453 kts | 265° |
| 2026-04-23 13:14 | 15.60272 | 155.45586 | 34974 ft | 453 kts | 265° |
| 2026-04-23 13:15 | 15.59636 | 155.39105 | 34975 ft | 453 kts | 265° |
| 2026-04-23 13:15 | 15.58994 | 155.32584 | 34979 ft | 453 kts | 265° |
| 2026-04-23 13:16 | 15.58354 | 155.26097 | 34979 ft | 452 kts | 264° |
| 2026-04-23 13:16 | 15.57711 | 155.19612 | 34978 ft | 452 kts | 264° |
| 2026-04-23 13:17 | 15.57064 | 155.13091 | 34979 ft | 453 kts | 264° |
| 2026-04-23 13:17 | 15.56420 | 155.06628 | 34975 ft | 453 kts | 264° |
| 2026-04-23 13:18 | 15.55766 | 155.00087 | 34976 ft | 453 kts | 265° |
| 2026-04-23 13:18 | 15.55116 | 154.93596 | 34976 ft | 453 kts | 264° |
| 2026-04-23 13:19 | 15.54464 | 154.87112 | 34973 ft | 452 kts | 264° |
| 2026-04-23 13:19 | 15.53811 | 154.80638 | 34968 ft | 451 kts | 264° |
| 2026-04-23 13:20 | 15.53153 | 154.74130 | 34968 ft | 452 kts | 264° |
| 2026-04-23 13:20 | 15.52496 | 154.67650 | 34969 ft | 453 kts | 264° |
| 2026-04-23 13:21 | 15.51836 | 154.61163 | 34967 ft | 453 kts | 264° |
| 2026-04-23 13:21 | 15.51175 | 154.54677 | 34967 ft | 453 kts | 264° |
| 2026-04-23 13:22 | 15.50508 | 154.48161 | 34965 ft | 454 kts | 264° |
| 2026-04-23 13:22 | 15.49843 | 154.41679 | 34963 ft | 452 kts | 264° |
| 2026-04-23 13:23 | 15.49172 | 154.35161 | 34963 ft | 453 kts | 264° |
| 2026-04-23 13:23 | 15.48502 | 154.28665 | 34969 ft | 452 kts | 264° |
| 2026-04-23 13:24 | 15.47832 | 154.22191 | 34970 ft | 452 kts | 264° |
| 2026-04-23 13:24 | 15.47158 | 154.15703 | 34970 ft | 453 kts | 264° |
| 2026-04-23 13:25 | 15.46485 | 154.09232 | 34972 ft | 453 kts | 264° |
| 2026-04-23 13:25 | 15.45802 | 154.02698 | 34973 ft | 454 kts | 264° |
| 2026-04-23 13:26 | 15.45123 | 153.96210 | 34979 ft | 452 kts | 264° |
| 2026-04-23 13:26 | 15.44445 | 153.89749 | 34974 ft | 452 kts | 264° |
| 2026-04-23 13:27 | 15.43761 | 153.83255 | 34974 ft | 453 kts | 264° |
| 2026-04-23 13:27 | 15.43078 | 153.76781 | 34974 ft | 452 kts | 264° |
| 2026-04-23 13:28 | 15.42391 | 153.70302 | 34975 ft | 453 kts | 264° |
| 2026-04-23 13:28 | 15.41700 | 153.63789 | 34974 ft | 453 kts | 264° |
| 2026-04-23 13:29 | 15.41010 | 153.57307 | 34972 ft | 452 kts | 264° |
| 2026-04-23 13:29 | 15.40319 | 153.50842 | 34972 ft | 452 kts | 264° |
| 2026-04-23 13:30 | 15.39626 | 153.44369 | 34972 ft | 452 kts | 264° |
| 2026-04-23 13:30 | 15.38932 | 153.37903 | 34969 ft | 453 kts | 264° |
| 2026-04-23 13:31 | 15.38232 | 153.31406 | 34977 ft | 451 kts | 264° |
| 2026-04-23 13:31 | 15.37531 | 153.24907 | 34978 ft | 452 kts | 264° |
| 2026-04-23 13:32 | 15.36826 | 153.18394 | 34974 ft | 452 kts | 264° |
| 2026-04-23 13:32 | 15.36123 | 153.11917 | 34977 ft | 452 kts | 264° |
| 2026-04-23 13:33 | 15.35420 | 153.05458 | 34974 ft | 453 kts | 264° |
| 2026-04-23 13:33 | 15.34714 | 152.98991 | 34973 ft | 453 kts | 264° |
| 2026-04-23 13:34 | 15.34002 | 152.92491 | 34971 ft | 451 kts | 264° |
| 2026-04-23 13:34 | 15.33294 | 152.86034 | 34970 ft | 452 kts | 264° |
| 2026-04-23 13:35 | 15.32582 | 152.79570 | 34973 ft | 452 kts | 264° |
| 2026-04-23 13:35 | 15.31865 | 152.73070 | 34975 ft | 452 kts | 264° |
| 2026-04-23 13:36 | 15.31149 | 152.66597 | 34981 ft | 453 kts | 264° |
| 2026-04-23 13:36 | 15.30431 | 152.60124 | 34977 ft | 453 kts | 264° |
| 2026-04-23 13:37 | 15.29711 | 152.53650 | 34970 ft | 453 kts | 264° |
| 2026-04-23 13:37 | 15.28985 | 152.47142 | 34967 ft | 453 kts | 264° |
| 2026-04-23 13:38 | 15.28257 | 152.40633 | 34970 ft | 452 kts | 264° |
| 2026-04-23 13:38 | 15.27533 | 152.34168 | 34969 ft | 453 kts | 263° |
| 2026-04-23 13:39 | 15.26800 | 152.27647 | 34972 ft | 453 kts | 263° |
| 2026-04-23 13:39 | 15.26070 | 152.21170 | 34970 ft | 454 kts | 263° |
| 2026-04-23 13:40 | 15.25336 | 152.14679 | 34971 ft | 454 kts | 263° |
| 2026-04-23 13:40 | 15.24600 | 152.08183 | 34973 ft | 455 kts | 263° |
| 2026-04-23 13:41 | 15.23863 | 152.01694 | 34973 ft | 453 kts | 263° |
| 2026-04-23 13:41 | 15.23121 | 151.95175 | 34970 ft | 454 kts | 263° |
| 2026-04-23 13:42 | 15.22382 | 151.88705 | 34969 ft | 453 kts | 263° |
| 2026-04-23 13:42 | 15.21641 | 151.82233 | 34968 ft | 454 kts | 263° |
| 2026-04-23 13:43 | 15.20895 | 151.75729 | 34966 ft | 455 kts | 263° |
| 2026-04-23 13:43 | 15.20145 | 151.69209 | 34971 ft | 454 kts | 263° |
| 2026-04-23 13:44 | 15.19397 | 151.62724 | 34968 ft | 454 kts | 263° |
| 2026-04-23 13:44 | 15.18646 | 151.56229 | 34970 ft | 454 kts | 263° |
| 2026-04-23 13:45 | 15.17892 | 151.49728 | 34967 ft | 456 kts | 263° |
| 2026-04-23 13:45 | 15.17137 | 151.43236 | 34964 ft | 454 kts | 263° |
| 2026-04-23 13:46 | 15.16381 | 151.36746 | 34963 ft | 454 kts | 263° |
| 2026-04-23 13:46 | 15.15619 | 151.30228 | 34967 ft | 454 kts | 263° |
| 2026-04-23 13:47 | 15.14861 | 151.23755 | 34967 ft | 454 kts | 263° |
| 2026-04-23 13:47 | 15.14095 | 151.17230 | 34967 ft | 455 kts | 263° |
| 2026-04-23 13:48 | 15.13332 | 151.10745 | 34967 ft | 456 kts | 263° |
| 2026-04-23 13:48 | 15.12565 | 151.04248 | 34966 ft | 456 kts | 263° |
| 2026-04-23 13:49 | 15.11795 | 150.97742 | 34965 ft | 455 kts | 263° |
| 2026-04-23 13:49 | 15.11019 | 150.91200 | 34964 ft | 455 kts | 263° |
| 2026-04-23 13:50 | 15.10247 | 150.84705 | 34964 ft | 455 kts | 263° |
| 2026-04-23 13:50 | 15.09473 | 150.78214 | 34965 ft | 454 kts | 263° |
| 2026-04-23 13:51 | 15.08699 | 150.71729 | 34963 ft | 455 kts | 263° |
| 2026-04-23 13:51 | 15.07922 | 150.65242 | 34963 ft | 455 kts | 263° |
| 2026-04-23 13:52 | 15.07143 | 150.58760 | 34962 ft | 454 kts | 263° |
| 2026-04-23 13:52 | 15.06364 | 150.52283 | 34964 ft | 455 kts | 263° |
| 2026-04-23 13:52 | 15.05964 | 150.48969 | 35091 ft | 465 kts | 263° |
| 2026-04-23 13:53 | 15.05563 | 150.45645 | 35438 ft | 463 kts | 263° |
| 2026-04-23 13:53 | 15.05168 | 150.42374 | 35744 ft | 459 kts | 263° |
| 2026-04-23 13:53 | 15.04768 | 150.39073 | 36057 ft | 457 kts | 263° |
| 2026-04-23 13:53 | 15.04375 | 150.35832 | 36363 ft | 457 kts | 263° |
| 2026-04-23 13:54 | 15.03981 | 150.32582 | 36677 ft | 456 kts | 262° |
| 2026-04-23 13:54 | 15.03583 | 150.29308 | 36955 ft | 457 kts | 262° |
| 2026-04-23 13:54 | 15.03184 | 150.26027 | 36961 ft | 458 kts | 262° |
| 2026-04-23 13:55 | 15.02390 | 150.19508 | 36963 ft | 456 kts | 262° |
| 2026-04-23 13:55 | 15.01589 | 150.12953 | 36965 ft | 456 kts | 262° |
| 2026-04-23 13:56 | 15.00785 | 150.06381 | 36965 ft | 457 kts | 262° |
| 2026-04-23 13:56 | 14.99983 | 149.99849 | 36965 ft | 457 kts | 262° |
| 2026-04-23 13:57 | 14.99193 | 149.93314 | 36965 ft | 458 kts | 262° |
| 2026-04-23 13:57 | 14.98405 | 149.86786 | 36965 ft | 457 kts | 262° |
| 2026-04-23 13:58 | 14.97616 | 149.80275 | 36961 ft | 456 kts | 262° |
| 2026-04-23 13:58 | 14.96825 | 149.73758 | 36955 ft | 456 kts | 262° |
| 2026-04-23 13:59 | 14.96028 | 149.67215 | 36946 ft | 455 kts | 262° |
| 2026-04-23 13:59 | 14.95238 | 149.60742 | 36942 ft | 456 kts | 262° |
| 2026-04-23 14:00 | 14.94575 | 149.55321 | 36942 ft | 455 kts | 262° |
| 2026-04-23 14:00 | 14.93640 | 149.47704 | 36942 ft | 456 kts | 262° |
| 2026-04-23 14:01 | 14.92839 | 149.41185 | 36942 ft | 456 kts | 262° |
| 2026-04-23 14:01 | 14.92035 | 149.34663 | 36941 ft | 456 kts | 262° |
| 2026-04-23 14:02 | 14.91232 | 149.28163 | 36947 ft | 456 kts | 262° |
| 2026-04-23 14:02 | 14.90431 | 149.21696 | 36946 ft | 456 kts | 262° |
| 2026-04-23 14:03 | 14.89620 | 149.15163 | 36947 ft | 456 kts | 262° |
| 2026-04-23 14:03 | 14.88812 | 149.08668 | 36947 ft | 455 kts | 262° |
| 2026-04-23 14:04 | 14.88006 | 149.02199 | 36946 ft | 454 kts | 262° |
| 2026-04-23 14:04 | 14.86816 | 148.95796 | 36949 ft | 454 kts | 254° |
| 2026-04-23 14:05 | 14.85027 | 148.89540 | 36946 ft | 454 kts | 253° |
| 2026-04-23 14:05 | 14.83220 | 148.83261 | 36951 ft | 455 kts | 253° |
| 2026-04-23 14:06 | 14.81414 | 148.76988 | 36961 ft | 455 kts | 253° |
| 2026-04-23 14:06 | 14.79605 | 148.70715 | 36962 ft | 456 kts | 253° |
| 2026-04-23 14:07 | 14.77790 | 148.64426 | 36962 ft | 456 kts | 253° |
| 2026-04-23 14:07 | 14.75073 | 148.55019 | 36958 ft | 456 kts | 253° |
| 2026-04-23 14:08 | 14.73253 | 148.48730 | 36959 ft | 455 kts | 253° |
| 2026-04-23 14:08 | 14.71437 | 148.42461 | 36958 ft | 455 kts | 253° |
| 2026-04-23 14:09 | 14.69625 | 148.36209 | 36957 ft | 456 kts | 253° |
| 2026-04-23 14:09 | 14.67803 | 148.29933 | 36963 ft | 457 kts | 253° |
| 2026-04-23 14:10 | 14.65968 | 148.23621 | 36959 ft | 458 kts | 253° |
| 2026-04-23 14:10 | 14.64131 | 148.17305 | 36955 ft | 458 kts | 253° |
| 2026-04-23 14:11 | 14.62301 | 148.11020 | 36950 ft | 458 kts | 253° |
| 2026-04-23 14:11 | 14.60474 | 148.04753 | 36950 ft | 456 kts | 253° |
| 2026-04-23 14:12 | 14.58613 | 147.98377 | 36954 ft | 455 kts | 253° |
| 2026-04-23 14:12 | 14.56775 | 147.92085 | 36955 ft | 455 kts | 253° |
| 2026-04-23 14:13 | 14.54939 | 147.85811 | 36958 ft | 456 kts | 253° |
| 2026-04-23 14:13 | 14.53103 | 147.79538 | 36956 ft | 456 kts | 253° |
| 2026-04-23 14:14 | 14.51255 | 147.73233 | 36956 ft | 457 kts | 253° |
| 2026-04-23 14:14 | 14.49415 | 147.66965 | 36958 ft | 457 kts | 253° |
| 2026-04-23 14:15 | 14.47561 | 147.60651 | 36953 ft | 457 kts | 253° |
| 2026-04-23 14:15 | 14.45718 | 147.54385 | 36953 ft | 457 kts | 253° |
| 2026-04-23 14:16 | 14.43866 | 147.48094 | 36952 ft | 456 kts | 253° |
| 2026-04-23 14:16 | 14.42014 | 147.41809 | 36953 ft | 457 kts | 253° |
| 2026-04-23 14:17 | 14.40165 | 147.35542 | 36951 ft | 456 kts | 253° |
| 2026-04-23 14:17 | 14.38305 | 147.29244 | 36954 ft | 457 kts | 253° |
| 2026-04-23 14:18 | 14.36452 | 147.22975 | 36955 ft | 456 kts | 253° |
| 2026-04-23 14:18 | 14.34599 | 147.16713 | 36954 ft | 457 kts | 253° |
| 2026-04-23 14:19 | 14.32746 | 147.10457 | 36953 ft | 456 kts | 253° |
| 2026-04-23 14:19 | 14.30878 | 147.04160 | 36952 ft | 457 kts | 253° |
| 2026-04-23 14:20 | 14.29005 | 146.97852 | 36949 ft | 457 kts | 253° |
| 2026-04-23 14:20 | 14.27135 | 146.91560 | 36947 ft | 456 kts | 253° |
| 2026-04-23 14:21 | 14.25273 | 146.85301 | 36944 ft | 457 kts | 253° |
| 2026-04-23 14:21 | 14.23407 | 146.79036 | 36944 ft | 457 kts | 253° |
| 2026-04-23 14:22 | 14.21541 | 146.72775 | 36943 ft | 457 kts | 253° |
| 2026-04-23 14:22 | 14.19670 | 146.66505 | 36713 ft | 460 kts | 253° |
| 2026-04-23 14:23 | 14.18728 | 146.63353 | 36424 ft | 459 kts | 253° |
| 2026-04-23 14:23 | 14.17793 | 146.60222 | 36134 ft | 458 kts | 253° |
| 2026-04-23 14:23 | 14.16856 | 146.57088 | 35844 ft | 458 kts | 253° |
| 2026-04-23 14:23 | 14.15922 | 146.53966 | 35555 ft | 459 kts | 253° |
| 2026-04-23 14:24 | 14.14979 | 146.50816 | 35229 ft | 461 kts | 253° |
| 2026-04-23 14:24 | 14.14035 | 146.47664 | 34681 ft | 463 kts | 253° |
| 2026-04-23 14:24 | 14.13079 | 146.44472 | 34103 ft | 460 kts | 253° |
| 2026-04-23 14:24 | 14.12141 | 146.41342 | 33534 ft | 456 kts | 253° |
| 2026-04-23 14:25 | 14.11218 | 146.38266 | 32974 ft | 451 kts | 253° |
| 2026-04-23 14:25 | 14.10296 | 146.35193 | 32436 ft | 446 kts | 253° |
| 2026-04-23 14:25 | 14.09381 | 146.32146 | 31923 ft | 442 kts | 253° |
| 2026-04-23 14:25 | 14.08479 | 146.29143 | 31412 ft | 439 kts | 253° |
| 2026-04-23 14:26 | 14.07570 | 146.26120 | 30897 ft | 437 kts | 253° |
| 2026-04-23 14:26 | 14.06679 | 146.23157 | 30390 ft | 435 kts | 253° |
| 2026-04-23 14:26 | 14.05780 | 146.20167 | 29876 ft | 432 kts | 253° |
| 2026-04-23 14:26 | 14.04898 | 146.17235 | 29382 ft | 429 kts | 253° |
| 2026-04-23 14:27 | 14.04024 | 146.14331 | 28926 ft | 426 kts | 253° |
| 2026-04-23 14:27 | 14.03143 | 146.11409 | 28471 ft | 424 kts | 253° |
| 2026-04-23 14:27 | 14.02276 | 146.08533 | 28023 ft | 421 kts | 253° |
| 2026-04-23 14:27 | 14.01402 | 146.05631 | 27570 ft | 419 kts | 253° |
| 2026-04-23 14:28 | 14.00543 | 146.02783 | 27123 ft | 416 kts | 253° |
| 2026-04-23 14:28 | 13.99692 | 145.99963 | 26679 ft | 414 kts | 253° |
| 2026-04-23 14:28 | 13.98829 | 145.97107 | 26227 ft | 413 kts | 253° |
| 2026-04-23 14:28 | 13.97982 | 145.94301 | 25784 ft | 412 kts | 253° |
| 2026-04-23 14:29 | 13.97136 | 145.91504 | 25342 ft | 411 kts | 253° |
| 2026-04-23 14:29 | 13.96285 | 145.88686 | 24896 ft | 409 kts | 253° |
| 2026-04-23 14:29 | 13.95443 | 145.85904 | 24467 ft | 407 kts | 253° |
| 2026-04-23 14:29 | 13.94597 | 145.83109 | 24045 ft | 405 kts | 253° |
| 2026-04-23 14:30 | 13.93763 | 145.80353 | 23626 ft | 404 kts | 253° |
| 2026-04-23 14:30 | 13.92936 | 145.77623 | 23218 ft | 402 kts | 253° |
| 2026-04-23 14:30 | 13.92099 | 145.74863 | 22808 ft | 401 kts | 253° |
| 2026-04-23 14:30 | 13.91274 | 145.72137 | 22400 ft | 400 kts | 253° |
| 2026-04-23 14:31 | 13.90438 | 145.69383 | 21997 ft | 399 kts | 253° |
| 2026-04-23 14:31 | 13.89621 | 145.66690 | 21606 ft | 396 kts | 253° |
| 2026-04-23 14:31 | 13.88797 | 145.63976 | 21207 ft | 393 kts | 253° |
| 2026-04-23 14:31 | 13.87978 | 145.61279 | 20809 ft | 391 kts | 253° |
| 2026-04-23 14:32 | 13.87172 | 145.58624 | 20410 ft | 389 kts | 253° |
| 2026-04-23 14:32 | 13.86373 | 145.55995 | 20015 ft | 387 kts | 253° |
| 2026-04-23 14:32 | 13.85565 | 145.53339 | 19613 ft | 384 kts | 253° |
| 2026-04-23 14:32 | 13.84776 | 145.50748 | 19234 ft | 382 kts | 253° |
| 2026-04-23 14:33 | 13.83979 | 145.48125 | 18855 ft | 379 kts | 253° |
| 2026-04-23 14:33 | 13.83190 | 145.45534 | 18479 ft | 377 kts | 253° |
| 2026-04-23 14:33 | 13.82410 | 145.42975 | 18106 ft | 376 kts | 253° |
| 2026-04-23 14:33 | 13.81635 | 145.40431 | 17733 ft | 374 kts | 253° |
| 2026-04-23 14:34 | 13.80848 | 145.37848 | 17353 ft | 372 kts | 253° |
| 2026-04-23 14:34 | 13.80081 | 145.35335 | 16986 ft | 370 kts | 253° |
| 2026-04-23 14:34 | 13.79315 | 145.32823 | 16616 ft | 368 kts | 253° |
| 2026-04-23 14:34 | 13.78544 | 145.30298 | 16242 ft | 366 kts | 253° |
| 2026-04-23 14:35 | 13.77786 | 145.27812 | 15872 ft | 364 kts | 253° |
| 2026-04-23 14:35 | 13.77022 | 145.25313 | 15496 ft | 362 kts | 253° |
| 2026-04-23 14:35 | 13.76273 | 145.22859 | 15124 ft | 359 kts | 253° |
| 2026-04-23 14:35 | 13.75522 | 145.20406 | 14749 ft | 356 kts | 253° |
| 2026-04-23 14:36 | 13.74784 | 145.17993 | 14378 ft | 354 kts | 253° |
| 2026-04-23 14:36 | 13.74054 | 145.15607 | 14026 ft | 350 kts | 253° |
| 2026-04-23 14:36 | 13.73323 | 145.13216 | 13672 ft | 345 kts | 253° |
| 2026-04-23 14:36 | 13.72610 | 145.10887 | 13323 ft | 341 kts | 253° |
| 2026-04-23 14:37 | 13.71895 | 145.08553 | 12982 ft | 337 kts | 253° |
| 2026-04-23 14:37 | 13.71196 | 145.06273 | 12654 ft | 333 kts | 253° |
| 2026-04-23 14:37 | 13.70500 | 145.03999 | 12324 ft | 329 kts | 253° |
| 2026-04-23 14:37 | 13.69820 | 145.01782 | 11996 ft | 325 kts | 253° |
| 2026-04-23 14:38 | 13.69147 | 144.99587 | 11626 ft | 321 kts | 253° |
| 2026-04-23 14:38 | 13.68482 | 144.97421 | 11322 ft | 309 kts | 253° |
| 2026-04-23 14:38 | 13.67842 | 144.95335 | 11057 ft | 305 kts | 253° |
| 2026-04-23 14:38 | 13.67201 | 144.93247 | 10751 ft | 302 kts | 253° |
| 2026-04-23 14:39 | 13.66573 | 144.91202 | 10458 ft | 299 kts | 253° |
| 2026-04-23 14:39 | 13.65954 | 144.89186 | 10184 ft | 296 kts | 253° |
| 2026-04-23 14:39 | 13.65330 | 144.87155 | 9901 ft | 293 kts | 253° |
| 2026-04-23 14:39 | 13.64719 | 144.85165 | 9619 ft | 293 kts | 253° |
| 2026-04-23 14:40 | 13.64098 | 144.83144 | 9333 ft | 293 kts | 253° |
| 2026-04-23 14:40 | 13.63486 | 144.81157 | 9052 ft | 292 kts | 253° |
| 2026-04-23 14:40 | 13.62876 | 144.79175 | 8770 ft | 292 kts | 253° |
| 2026-04-23 14:40 | 13.62261 | 144.77173 | 8482 ft | 290 kts | 253° |
| 2026-04-23 14:41 | 13.61654 | 144.75203 | 8200 ft | 289 kts | 253° |
| 2026-04-23 14:41 | 13.61050 | 144.73241 | 7917 ft | 288 kts | 253° |
| 2026-04-23 14:41 | 13.60439 | 144.71258 | 7632 ft | 287 kts | 253° |
| 2026-04-23 14:41 | 13.59841 | 144.69321 | 7351 ft | 287 kts | 252° |
| 2026-04-23 14:42 | 13.58972 | 144.67488 | 7049 ft | 286 kts | 235° |
| 2026-04-23 14:42 | 13.57941 | 144.65721 | 6769 ft | 285 kts | 242° |
| 2026-04-23 14:42 | 13.57052 | 144.63915 | 6486 ft | 282 kts | 243° |
| 2026-04-23 14:42 | 13.56174 | 144.62108 | 6200 ft | 279 kts | 243° |
| 2026-04-23 14:43 | 13.55316 | 144.60338 | 5919 ft | 276 kts | 243° |
| 2026-04-23 14:43 | 13.54470 | 144.58585 | 5640 ft | 273 kts | 243° |
| 2026-04-23 14:43 | 13.53627 | 144.56824 | 5357 ft | 271 kts | 243° |
| 2026-04-23 14:43 | 13.52805 | 144.55100 | 5077 ft | 269 kts | 243° |
| 2026-04-23 14:44 | 13.51980 | 144.53365 | 4794 ft | 267 kts | 243° |
| 2026-04-23 14:44 | 13.51176 | 144.51665 | 4515 ft | 265 kts | 243° |
| 2026-04-23 14:44 | 13.50361 | 144.49951 | 4226 ft | 264 kts | 242° |
| 2026-04-23 14:44 | 13.49238 | 144.48517 | 3921 ft | 257 kts | 214° |
| 2026-04-23 14:45 | 13.47636 | 144.47830 | 3609 ft | 247 kts | 183° |
| 2026-04-23 14:45 | 13.45991 | 144.48045 | 3288 ft | 224 kts | 151° |
| 2026-04-23 14:45 | 13.44869 | 144.48979 | 3013 ft | 198 kts | 124° |
| 2026-04-23 14:45 | 13.44071 | 144.50073 | 2942 ft | 189 kts | 122° |
| 2026-04-23 14:46 | 13.43278 | 144.51170 | 2940 ft | 189 kts | 122° |
| 2026-04-23 14:46 | 13.42496 | 144.52252 | 2932 ft | 188 kts | 122° |
| 2026-04-23 14:46 | 13.41769 | 144.53372 | 2933 ft | 188 kts | 118° |
| 2026-04-23 14:46 | 13.41063 | 144.54523 | 2936 ft | 188 kts | 118° |
| 2026-04-23 14:47 | 13.40369 | 144.55656 | 2936 ft | 186 kts | 118° |
| 2026-04-23 14:47 | 13.39678 | 144.56787 | 2937 ft | 187 kts | 118° |
| 2026-04-23 14:47 | 13.39005 | 144.57941 | 2932 ft | 184 kts | 110° |
| 2026-04-23 14:47 | 13.38938 | 144.59169 | 2918 ft | 172 kts | 72° |
| 2026-04-23 14:48 | 13.39495 | 144.60257 | 2929 ft | 168 kts | 63° |
| 2026-04-23 14:48 | 13.40035 | 144.61308 | 2932 ft | 167 kts | 65° |
| 2026-04-23 14:48 | 13.40535 | 144.62389 | 2935 ft | 167 kts | 66° |
| 2026-04-23 14:48 | 13.41028 | 144.63480 | 2937 ft | 167 kts | 66° |
| 2026-04-23 14:49 | 13.41518 | 144.64560 | 2933 ft | 167 kts | 65° |
| 2026-04-23 14:49 | 13.42050 | 144.65622 | 2916 ft | 167 kts | 61° |
| 2026-04-23 14:49 | 13.42623 | 144.66678 | 2744 ft | 164 kts | 61° |
| 2026-04-23 14:49 | 13.43162 | 144.67674 | 2334 ft | 156 kts | 60° |
| 2026-04-23 14:50 | 13.43651 | 144.68634 | 1946 ft | 147 kts | 65° |
| 2026-04-23 14:50 | 13.44043 | 144.69595 | 1718 ft | 150 kts | 68° |
| 2026-04-23 14:50 | 13.44442 | 144.70622 | 1563 ft | 155 kts | 67° |
| 2026-04-23 14:50 | 13.44855 | 144.71640 | 1405 ft | 155 kts | 66° |
| 2026-04-23 14:51 | 13.45292 | 144.72650 | 1287 ft | 154 kts | 66° |
| 2026-04-23 14:51 | 13.45745 | 144.73671 | 1137 ft | 157 kts | 65° |
| 2026-04-23 14:51 | 13.46219 | 144.74689 | 983 ft | 159 kts | 64° |
| 2026-04-23 14:51 | 13.46689 | 144.75732 | 772 ft | 162 kts | 65° |
| 2026-04-23 14:52 | 13.47162 | 144.76779 | 562 ft | 158 kts | 64° |
| 2026-04-23 14:52 | 13.47625 | 144.77795 | 371 ft | 152 kts | 65° |
| 2026-04-23 14:52 | 13.48060 | 144.78764 | 259 ft | 143 kts | 65° |
| 2026-04-23 14:52 | 13.48413 | 144.79532 | 274 ft | 92 kts | 66° |
| 2026-04-23 14:53 | 13.48609 | 144.79967 | 279 ft | 47 kts | 65° |
| 2026-04-23 14:53 | 13.48716 | 144.80183 | 283 ft | 28 kts | 59° |
| 2026-04-23 14:53 | 13.48853 | 144.80319 | 286 ft | 26 kts | 37° |
| 2026-04-23 14:53 | 13.48981 | 144.80417 | 284 ft | 21 kts | 45° |
| 2026-04-23 14:54 | 13.49055 | 144.80527 | 286 ft | 7 kts | 60° |
| 2026-04-23 14:54 | 13.49066 | 144.80545 | 287 ft | 4 kts | 60° |
| 2026-04-23 14:54 | 13.49093 | 144.80598 | 290 ft | 7 kts | 62° |
| 2026-04-23 14:54 | 13.49126 | 144.80621 | 290 ft | 6 kts | 359° |
| 2026-04-23 14:55 | 13.49166 | 144.80608 | 286 ft | 4 kts | 337° |
| 2026-04-23 14:55 | 13.49175 | 144.80605 | 285 ft | 0 kts | 336° |